<?xml version="1.0" encoding="UTF-8" standalone="no" ?>
<gpx xmlns="http://www.topografix.com/GPX/1/1" xmlns:xsi="http://www.w3.org/2001/XMLSchema-instance" xsi:schemaLocation="http://www.topografix.com/GPX/1/1 http://www.topografix.com/GPX/1/1/gpx.xsd" version="1.1" creator="VisuGPX - https://www.visugpx.com">
  <metadata>
    <name>03-Sauges_Le Sauvage</name>
  </metadata>
  <trk>
    <name><![CDATA[03-Sauges_Le Sauvage]]></name>
    <trkseg>
      <trkpt lat="44.96086" lon="3.54846">
        <ele>962</ele>
        <time>2021-03-13T19:01:31+01:00</time>
      </trkpt>
      <trkpt lat="44.96097" lon="3.5483">
        <ele>963</ele>
        <time>2021-03-13T19:01:36+01:00</time>
      </trkpt>
      <trkpt lat="44.96105" lon="3.54811">
        <ele>964</ele>
        <time>2021-03-13T19:01:41+01:00</time>
      </trkpt>
      <trkpt lat="44.96107" lon="3.54775">
        <ele>965</ele>
        <time>2021-03-13T19:01:46+01:00</time>
      </trkpt>
      <trkpt lat="44.96109" lon="3.5474">
        <ele>966</ele>
        <time>2021-03-13T19:01:51+01:00</time>
      </trkpt>
      <trkpt lat="44.96106" lon="3.54705">
        <ele>966</ele>
        <time>2021-03-13T19:01:56+01:00</time>
      </trkpt>
      <trkpt lat="44.96093" lon="3.54668">
        <ele>966</ele>
        <time>2021-03-13T19:02:01+01:00</time>
      </trkpt>
      <trkpt lat="44.96079" lon="3.54654">
        <ele>966</ele>
        <time>2021-03-13T19:02:06+01:00</time>
      </trkpt>
      <trkpt lat="44.96051" lon="3.54635">
        <ele>965</ele>
        <time>2021-03-13T19:02:11+01:00</time>
      </trkpt>
      <trkpt lat="44.96035" lon="3.54629">
        <ele>965</ele>
        <time>2021-03-13T19:02:16+01:00</time>
      </trkpt>
      <trkpt lat="44.96022" lon="3.54617">
        <ele>964</ele>
        <time>2021-03-13T19:02:21+01:00</time>
      </trkpt>
      <trkpt lat="44.95994" lon="3.54604">
        <ele>965</ele>
        <time>2021-03-13T19:02:26+01:00</time>
      </trkpt>
      <trkpt lat="44.95978" lon="3.54597">
        <ele>965</ele>
        <time>2021-03-13T19:02:31+01:00</time>
      </trkpt>
      <trkpt lat="44.95966" lon="3.54593">
        <ele>965</ele>
        <time>2021-03-13T19:02:36+01:00</time>
      </trkpt>
      <trkpt lat="44.95939" lon="3.54581">
        <ele>966</ele>
        <time>2021-03-13T19:02:41+01:00</time>
      </trkpt>
      <trkpt lat="44.95915" lon="3.54555">
        <ele>964</ele>
        <time>2021-03-13T19:02:46+01:00</time>
      </trkpt>
      <trkpt lat="44.95903" lon="3.54535">
        <ele>962</ele>
        <time>2021-03-13T19:02:51+01:00</time>
      </trkpt>
      <trkpt lat="44.95898" lon="3.54519">
        <ele>961</ele>
        <time>2021-03-13T19:02:56+01:00</time>
      </trkpt>
      <trkpt lat="44.95887" lon="3.54461">
        <ele>955</ele>
        <time>2021-03-13T19:03:01+01:00</time>
      </trkpt>
      <trkpt lat="44.95879" lon="3.54438">
        <ele>953</ele>
        <time>2021-03-13T19:03:06+01:00</time>
      </trkpt>
      <trkpt lat="44.95879" lon="3.54438">
        <ele>953</ele>
        <time>2021-03-13T19:03:11+01:00</time>
      </trkpt>
      <trkpt lat="44.95859" lon="3.54409">
        <ele>951</ele>
        <time>2021-03-13T19:03:16+01:00</time>
      </trkpt>
      <trkpt lat="44.95835" lon="3.54369">
        <ele>948</ele>
        <time>2021-03-13T19:03:21+01:00</time>
      </trkpt>
      <trkpt lat="44.95809" lon="3.54308">
        <ele>946</ele>
        <time>2021-03-13T19:03:26+01:00</time>
      </trkpt>
      <trkpt lat="44.95795" lon="3.54285">
        <ele>944</ele>
        <time>2021-03-13T19:03:31+01:00</time>
      </trkpt>
      <trkpt lat="44.95782" lon="3.54267">
        <ele>943</ele>
        <time>2021-03-13T19:03:36+01:00</time>
      </trkpt>
      <trkpt lat="44.95763" lon="3.54248">
        <ele>942</ele>
        <time>2021-03-13T19:03:41+01:00</time>
      </trkpt>
      <trkpt lat="44.95715" lon="3.54212">
        <ele>939</ele>
        <time>2021-03-13T19:03:46+01:00</time>
      </trkpt>
      <trkpt lat="44.95642" lon="3.54164">
        <ele>935</ele>
        <time>2021-03-13T19:03:51+01:00</time>
      </trkpt>
      <trkpt lat="44.95616" lon="3.5413">
        <ele>933</ele>
        <time>2021-03-13T19:03:56+01:00</time>
      </trkpt>
      <trkpt lat="44.95615" lon="3.5413">
        <ele>933</ele>
        <time>2021-03-13T19:04:01+01:00</time>
      </trkpt>
      <trkpt lat="44.95614" lon="3.54131">
        <ele>933</ele>
        <time>2021-03-13T19:04:06+01:00</time>
      </trkpt>
      <trkpt lat="44.95613" lon="3.54131">
        <ele>933</ele>
        <time>2021-03-13T19:04:11+01:00</time>
      </trkpt>
      <trkpt lat="44.9561" lon="3.54131">
        <ele>933</ele>
        <time>2021-03-13T19:04:16+01:00</time>
      </trkpt>
      <trkpt lat="44.95608" lon="3.54129">
        <ele>933</ele>
        <time>2021-03-13T19:04:21+01:00</time>
      </trkpt>
      <trkpt lat="44.95598" lon="3.54073">
        <ele>928</ele>
        <time>2021-03-13T19:04:26+01:00</time>
      </trkpt>
      <trkpt lat="44.95593" lon="3.5401">
        <ele>928</ele>
        <time>2021-03-13T19:04:31+01:00</time>
      </trkpt>
      <trkpt lat="44.95571" lon="3.53925">
        <ele>928</ele>
        <time>2021-03-13T19:04:36+01:00</time>
      </trkpt>
      <trkpt lat="44.95554" lon="3.53862">
        <ele>928</ele>
        <time>2021-03-13T19:04:41+01:00</time>
      </trkpt>
      <trkpt lat="44.95546" lon="3.53864">
        <ele>928</ele>
        <time>2021-03-13T19:04:46+01:00</time>
      </trkpt>
      <trkpt lat="44.95534" lon="3.53866">
        <ele>928</ele>
        <time>2021-03-13T19:04:51+01:00</time>
      </trkpt>
      <trkpt lat="44.95504" lon="3.53863">
        <ele>929</ele>
        <time>2021-03-13T19:04:56+01:00</time>
      </trkpt>
      <trkpt lat="44.95495" lon="3.5386">
        <ele>929</ele>
        <time>2021-03-13T19:05:01+01:00</time>
      </trkpt>
      <trkpt lat="44.95495" lon="3.5386">
        <ele>929</ele>
        <time>2021-03-13T19:05:06+01:00</time>
      </trkpt>
      <trkpt lat="44.95469" lon="3.53846">
        <ele>929</ele>
        <time>2021-03-13T19:05:11+01:00</time>
      </trkpt>
      <trkpt lat="44.95439" lon="3.53828">
        <ele>930</ele>
        <time>2021-03-13T19:05:16+01:00</time>
      </trkpt>
      <trkpt lat="44.95422" lon="3.53811">
        <ele>930</ele>
        <time>2021-03-13T19:05:21+01:00</time>
      </trkpt>
      <trkpt lat="44.95377" lon="3.53763">
        <ele>932</ele>
        <time>2021-03-13T19:05:26+01:00</time>
      </trkpt>
      <trkpt lat="44.9536" lon="3.53749">
        <ele>931</ele>
        <time>2021-03-13T19:05:31+01:00</time>
      </trkpt>
      <trkpt lat="44.95331" lon="3.53731">
        <ele>931</ele>
        <time>2021-03-13T19:05:36+01:00</time>
      </trkpt>
      <trkpt lat="44.95313" lon="3.53722">
        <ele>931</ele>
        <time>2021-03-13T19:05:41+01:00</time>
      </trkpt>
      <trkpt lat="44.95287" lon="3.53713">
        <ele>932</ele>
        <time>2021-03-13T19:05:46+01:00</time>
      </trkpt>
      <trkpt lat="44.95268" lon="3.53698">
        <ele>932</ele>
        <time>2021-03-13T19:05:51+01:00</time>
      </trkpt>
      <trkpt lat="44.95257" lon="3.53681">
        <ele>933</ele>
        <time>2021-03-13T19:05:56+01:00</time>
      </trkpt>
      <trkpt lat="44.95247" lon="3.5365">
        <ele>933</ele>
        <time>2021-03-13T19:06:01+01:00</time>
      </trkpt>
      <trkpt lat="44.95231" lon="3.53596">
        <ele>934</ele>
        <time>2021-03-13T19:06:06+01:00</time>
      </trkpt>
      <trkpt lat="44.95214" lon="3.53555">
        <ele>935</ele>
        <time>2021-03-13T19:06:11+01:00</time>
      </trkpt>
      <trkpt lat="44.9516" lon="3.53443">
        <ele>936</ele>
        <time>2021-03-13T19:06:16+01:00</time>
      </trkpt>
      <trkpt lat="44.95118" lon="3.53362">
        <ele>937</ele>
        <time>2021-03-13T19:06:21+01:00</time>
      </trkpt>
      <trkpt lat="44.95106" lon="3.53343">
        <ele>937</ele>
        <time>2021-03-13T19:06:26+01:00</time>
      </trkpt>
      <trkpt lat="44.95078" lon="3.53314">
        <ele>936</ele>
        <time>2021-03-13T19:06:31+01:00</time>
      </trkpt>
      <trkpt lat="44.95056" lon="3.53296">
        <ele>937</ele>
        <time>2021-03-13T19:06:36+01:00</time>
      </trkpt>
      <trkpt lat="44.95056" lon="3.53296">
        <ele>937</ele>
        <time>2021-03-13T19:06:41+01:00</time>
      </trkpt>
      <trkpt lat="44.95026" lon="3.53279">
        <ele>937</ele>
        <time>2021-03-13T19:06:46+01:00</time>
      </trkpt>
      <trkpt lat="44.95021" lon="3.53274">
        <ele>937</ele>
        <time>2021-03-13T19:06:51+01:00</time>
      </trkpt>
      <trkpt lat="44.95019" lon="3.53269">
        <ele>937</ele>
        <time>2021-03-13T19:06:56+01:00</time>
      </trkpt>
      <trkpt lat="44.95018" lon="3.53258">
        <ele>937</ele>
        <time>2021-03-13T19:07:01+01:00</time>
      </trkpt>
      <trkpt lat="44.9498" lon="3.5326">
        <ele>938</ele>
        <time>2021-03-13T19:07:06+01:00</time>
      </trkpt>
      <trkpt lat="44.9495" lon="3.53259">
        <ele>939</ele>
        <time>2021-03-13T19:07:11+01:00</time>
      </trkpt>
      <trkpt lat="44.94906" lon="3.53246">
        <ele>941</ele>
        <time>2021-03-13T19:07:16+01:00</time>
      </trkpt>
      <trkpt lat="44.94849" lon="3.53222">
        <ele>947</ele>
        <time>2021-03-13T19:07:21+01:00</time>
      </trkpt>
      <trkpt lat="44.94833" lon="3.53215">
        <ele>949</ele>
        <time>2021-03-13T19:07:26+01:00</time>
      </trkpt>
      <trkpt lat="44.94822" lon="3.53207">
        <ele>949</ele>
        <time>2021-03-13T19:07:31+01:00</time>
      </trkpt>
      <trkpt lat="44.94764" lon="3.53158">
        <ele>955</ele>
        <time>2021-03-13T19:07:36+01:00</time>
      </trkpt>
      <trkpt lat="44.94744" lon="3.53142">
        <ele>956</ele>
        <time>2021-03-13T19:07:41+01:00</time>
      </trkpt>
      <trkpt lat="44.94711" lon="3.53122">
        <ele>958</ele>
        <time>2021-03-13T19:07:46+01:00</time>
      </trkpt>
      <trkpt lat="44.94636" lon="3.53073">
        <ele>963</ele>
        <time>2021-03-13T19:07:51+01:00</time>
      </trkpt>
      <trkpt lat="44.94588" lon="3.53033">
        <ele>967</ele>
        <time>2021-03-13T19:07:56+01:00</time>
      </trkpt>
      <trkpt lat="44.94574" lon="3.53025">
        <ele>968</ele>
        <time>2021-03-13T19:08:01+01:00</time>
      </trkpt>
      <trkpt lat="44.94554" lon="3.53018">
        <ele>969</ele>
        <time>2021-03-13T19:08:06+01:00</time>
      </trkpt>
      <trkpt lat="44.94554" lon="3.53018">
        <ele>969</ele>
        <time>2021-03-13T19:08:11+01:00</time>
      </trkpt>
      <trkpt lat="44.94515" lon="3.53">
        <ele>971</ele>
        <time>2021-03-13T19:08:16+01:00</time>
      </trkpt>
      <trkpt lat="44.94495" lon="3.52986">
        <ele>973</ele>
        <time>2021-03-13T19:08:21+01:00</time>
      </trkpt>
      <trkpt lat="44.94474" lon="3.52956">
        <ele>976</ele>
        <time>2021-03-13T19:08:26+01:00</time>
      </trkpt>
      <trkpt lat="44.94456" lon="3.5292">
        <ele>979</ele>
        <time>2021-03-13T19:08:31+01:00</time>
      </trkpt>
      <trkpt lat="44.94444" lon="3.52905">
        <ele>980</ele>
        <time>2021-03-13T19:08:36+01:00</time>
      </trkpt>
      <trkpt lat="44.94409" lon="3.52865">
        <ele>982</ele>
        <time>2021-03-13T19:08:41+01:00</time>
      </trkpt>
      <trkpt lat="44.94377" lon="3.52829">
        <ele>984</ele>
        <time>2021-03-13T19:08:46+01:00</time>
      </trkpt>
      <trkpt lat="44.94348" lon="3.52804">
        <ele>987</ele>
        <time>2021-03-13T19:08:51+01:00</time>
      </trkpt>
      <trkpt lat="44.94327" lon="3.5279">
        <ele>989</ele>
        <time>2021-03-13T19:08:56+01:00</time>
      </trkpt>
      <trkpt lat="44.94321" lon="3.52787">
        <ele>990</ele>
        <time>2021-03-13T19:09:01+01:00</time>
      </trkpt>
      <trkpt lat="44.9431" lon="3.52796">
        <ele>990</ele>
        <time>2021-03-13T19:09:06+01:00</time>
      </trkpt>
      <trkpt lat="44.94294" lon="3.52804">
        <ele>991</ele>
        <time>2021-03-13T19:09:11+01:00</time>
      </trkpt>
      <trkpt lat="44.94252" lon="3.5282">
        <ele>995</ele>
        <time>2021-03-13T19:09:16+01:00</time>
      </trkpt>
      <trkpt lat="44.94214" lon="3.52836">
        <ele>995</ele>
        <time>2021-03-13T19:09:21+01:00</time>
      </trkpt>
      <trkpt lat="44.94176" lon="3.52853">
        <ele>995</ele>
        <time>2021-03-13T19:09:26+01:00</time>
      </trkpt>
      <trkpt lat="44.94152" lon="3.52861">
        <ele>994</ele>
        <time>2021-03-13T19:09:31+01:00</time>
      </trkpt>
      <trkpt lat="44.94138" lon="3.52859">
        <ele>994</ele>
        <time>2021-03-13T19:09:36+01:00</time>
      </trkpt>
      <trkpt lat="44.9412" lon="3.5285">
        <ele>995</ele>
        <time>2021-03-13T19:09:41+01:00</time>
      </trkpt>
      <trkpt lat="44.9412" lon="3.5285">
        <ele>995</ele>
        <time>2021-03-13T19:09:46+01:00</time>
      </trkpt>
      <trkpt lat="44.94106" lon="3.52847">
        <ele>995</ele>
        <time>2021-03-13T19:09:51+01:00</time>
      </trkpt>
      <trkpt lat="44.94084" lon="3.52846">
        <ele>995</ele>
        <time>2021-03-13T19:09:56+01:00</time>
      </trkpt>
      <trkpt lat="44.94071" lon="3.52852">
        <ele>996</ele>
        <time>2021-03-13T19:10:01+01:00</time>
      </trkpt>
      <trkpt lat="44.94051" lon="3.52864">
        <ele>996</ele>
        <time>2021-03-13T19:10:06+01:00</time>
      </trkpt>
      <trkpt lat="44.94027" lon="3.52875">
        <ele>997</ele>
        <time>2021-03-13T19:10:11+01:00</time>
      </trkpt>
      <trkpt lat="44.94017" lon="3.52882">
        <ele>997</ele>
        <time>2021-03-13T19:10:16+01:00</time>
      </trkpt>
      <trkpt lat="44.94012" lon="3.5289">
        <ele>997</ele>
        <time>2021-03-13T19:10:21+01:00</time>
      </trkpt>
      <trkpt lat="44.93998" lon="3.52931">
        <ele>998</ele>
        <time>2021-03-13T19:10:26+01:00</time>
      </trkpt>
      <trkpt lat="44.9399" lon="3.52957">
        <ele>999</ele>
        <time>2021-03-13T19:10:31+01:00</time>
      </trkpt>
      <trkpt lat="44.93987" lon="3.52962">
        <ele>1000</ele>
        <time>2021-03-13T19:10:36+01:00</time>
      </trkpt>
      <trkpt lat="44.93977" lon="3.5297">
        <ele>1001</ele>
        <time>2021-03-13T19:10:41+01:00</time>
      </trkpt>
      <trkpt lat="44.93947" lon="3.52988">
        <ele>1005</ele>
        <time>2021-03-13T19:10:46+01:00</time>
      </trkpt>
      <trkpt lat="44.93935" lon="3.5299">
        <ele>1007</ele>
        <time>2021-03-13T19:10:51+01:00</time>
      </trkpt>
      <trkpt lat="44.93916" lon="3.52985">
        <ele>1009</ele>
        <time>2021-03-13T19:10:56+01:00</time>
      </trkpt>
      <trkpt lat="44.93898" lon="3.52979">
        <ele>1011</ele>
        <time>2021-03-13T19:11:01+01:00</time>
      </trkpt>
      <trkpt lat="44.93876" lon="3.52976">
        <ele>1012</ele>
        <time>2021-03-13T19:11:06+01:00</time>
      </trkpt>
      <trkpt lat="44.93869" lon="3.52974">
        <ele>1012</ele>
        <time>2021-03-13T19:11:11+01:00</time>
      </trkpt>
      <trkpt lat="44.93852" lon="3.52958">
        <ele>1014</ele>
        <time>2021-03-13T19:11:16+01:00</time>
      </trkpt>
      <trkpt lat="44.93817" lon="3.52914">
        <ele>1016</ele>
        <time>2021-03-13T19:11:21+01:00</time>
      </trkpt>
      <trkpt lat="44.93803" lon="3.52893">
        <ele>1017</ele>
        <time>2021-03-13T19:11:26+01:00</time>
      </trkpt>
      <trkpt lat="44.93793" lon="3.52871">
        <ele>1017</ele>
        <time>2021-03-13T19:11:31+01:00</time>
      </trkpt>
      <trkpt lat="44.93786" lon="3.5286">
        <ele>1017</ele>
        <time>2021-03-13T19:11:36+01:00</time>
      </trkpt>
      <trkpt lat="44.93775" lon="3.52856">
        <ele>1018</ele>
        <time>2021-03-13T19:11:41+01:00</time>
      </trkpt>
      <trkpt lat="44.93759" lon="3.5285">
        <ele>1018</ele>
        <time>2021-03-13T19:11:46+01:00</time>
      </trkpt>
      <trkpt lat="44.93759" lon="3.5285">
        <ele>1018</ele>
        <time>2021-03-13T19:11:51+01:00</time>
      </trkpt>
      <trkpt lat="44.93742" lon="3.52848">
        <ele>1019</ele>
        <time>2021-03-13T19:11:56+01:00</time>
      </trkpt>
      <trkpt lat="44.93713" lon="3.5286">
        <ele>1019</ele>
        <time>2021-03-13T19:12:01+01:00</time>
      </trkpt>
      <trkpt lat="44.93703" lon="3.52861">
        <ele>1020</ele>
        <time>2021-03-13T19:12:06+01:00</time>
      </trkpt>
      <trkpt lat="44.93694" lon="3.52856">
        <ele>1020</ele>
        <time>2021-03-13T19:12:11+01:00</time>
      </trkpt>
      <trkpt lat="44.93683" lon="3.52847">
        <ele>1020</ele>
        <time>2021-03-13T19:12:16+01:00</time>
      </trkpt>
      <trkpt lat="44.93655" lon="3.52802">
        <ele>1021</ele>
        <time>2021-03-13T19:12:21+01:00</time>
      </trkpt>
      <trkpt lat="44.9362" lon="3.52737">
        <ele>1021</ele>
        <time>2021-03-13T19:12:26+01:00</time>
      </trkpt>
      <trkpt lat="44.93591" lon="3.52682">
        <ele>1022</ele>
        <time>2021-03-13T19:12:31+01:00</time>
      </trkpt>
      <trkpt lat="44.9358" lon="3.52664">
        <ele>1023</ele>
        <time>2021-03-13T19:12:36+01:00</time>
      </trkpt>
      <trkpt lat="44.93571" lon="3.52643">
        <ele>1022</ele>
        <time>2021-03-13T19:12:41+01:00</time>
      </trkpt>
      <trkpt lat="44.93557" lon="3.52585">
        <ele>1022</ele>
        <time>2021-03-13T19:12:46+01:00</time>
      </trkpt>
      <trkpt lat="44.93547" lon="3.52546">
        <ele>1023</ele>
        <time>2021-03-13T19:12:51+01:00</time>
      </trkpt>
      <trkpt lat="44.93536" lon="3.52519">
        <ele>1024</ele>
        <time>2021-03-13T19:12:56+01:00</time>
      </trkpt>
      <trkpt lat="44.93513" lon="3.52471">
        <ele>1024</ele>
        <time>2021-03-13T19:13:01+01:00</time>
      </trkpt>
      <trkpt lat="44.9349" lon="3.52445">
        <ele>1023</ele>
        <time>2021-03-13T19:13:06+01:00</time>
      </trkpt>
      <trkpt lat="44.93485" lon="3.5244">
        <ele>1023</ele>
        <time>2021-03-13T19:13:11+01:00</time>
      </trkpt>
      <trkpt lat="44.93467" lon="3.52439">
        <ele>1023</ele>
        <time>2021-03-13T19:13:16+01:00</time>
      </trkpt>
      <trkpt lat="44.93427" lon="3.52447">
        <ele>1022</ele>
        <time>2021-03-13T19:13:21+01:00</time>
      </trkpt>
      <trkpt lat="44.93385" lon="3.52449">
        <ele>1024</ele>
        <time>2021-03-13T19:13:26+01:00</time>
      </trkpt>
      <trkpt lat="44.93385" lon="3.52449">
        <ele>1024</ele>
        <time>2021-03-13T19:13:31+01:00</time>
      </trkpt>
      <trkpt lat="44.93344" lon="3.52449">
        <ele>1027</ele>
        <time>2021-03-13T19:13:36+01:00</time>
      </trkpt>
      <trkpt lat="44.93309" lon="3.52452">
        <ele>1029</ele>
        <time>2021-03-13T19:13:41+01:00</time>
      </trkpt>
      <trkpt lat="44.93276" lon="3.52452">
        <ele>1030</ele>
        <time>2021-03-13T19:13:46+01:00</time>
      </trkpt>
      <trkpt lat="44.93259" lon="3.52448">
        <ele>1030</ele>
        <time>2021-03-13T19:13:51+01:00</time>
      </trkpt>
      <trkpt lat="44.93224" lon="3.52433">
        <ele>1033</ele>
        <time>2021-03-13T19:13:56+01:00</time>
      </trkpt>
      <trkpt lat="44.93197" lon="3.52425">
        <ele>1035</ele>
        <time>2021-03-13T19:14:01+01:00</time>
      </trkpt>
      <trkpt lat="44.93162" lon="3.52417">
        <ele>1037</ele>
        <time>2021-03-13T19:14:06+01:00</time>
      </trkpt>
      <trkpt lat="44.93129" lon="3.52415">
        <ele>1038</ele>
        <time>2021-03-13T19:14:11+01:00</time>
      </trkpt>
      <trkpt lat="44.93125" lon="3.52407">
        <ele>1038</ele>
        <time>2021-03-13T19:14:16+01:00</time>
      </trkpt>
      <trkpt lat="44.93111" lon="3.52387">
        <ele>1040</ele>
        <time>2021-03-13T19:14:21+01:00</time>
      </trkpt>
      <trkpt lat="44.93094" lon="3.52355">
        <ele>1043</ele>
        <time>2021-03-13T19:14:26+01:00</time>
      </trkpt>
      <trkpt lat="44.93069" lon="3.52337">
        <ele>1044</ele>
        <time>2021-03-13T19:14:31+01:00</time>
      </trkpt>
      <trkpt lat="44.93049" lon="3.52327">
        <ele>1043</ele>
        <time>2021-03-13T19:14:36+01:00</time>
      </trkpt>
      <trkpt lat="44.93031" lon="3.52312">
        <ele>1042</ele>
        <time>2021-03-13T19:14:41+01:00</time>
      </trkpt>
      <trkpt lat="44.93003" lon="3.52311">
        <ele>1041</ele>
        <time>2021-03-13T19:14:46+01:00</time>
      </trkpt>
      <trkpt lat="44.92967" lon="3.52304">
        <ele>1041</ele>
        <time>2021-03-13T19:14:51+01:00</time>
      </trkpt>
      <trkpt lat="44.92944" lon="3.52291">
        <ele>1041</ele>
        <time>2021-03-13T19:14:56+01:00</time>
      </trkpt>
      <trkpt lat="44.92944" lon="3.52291">
        <ele>1041</ele>
        <time>2021-03-13T19:15:01+01:00</time>
      </trkpt>
      <trkpt lat="44.92911" lon="3.52267">
        <ele>1042</ele>
        <time>2021-03-13T19:15:06+01:00</time>
      </trkpt>
      <trkpt lat="44.92881" lon="3.52247">
        <ele>1045</ele>
        <time>2021-03-13T19:15:11+01:00</time>
      </trkpt>
      <trkpt lat="44.92858" lon="3.52237">
        <ele>1047</ele>
        <time>2021-03-13T19:15:16+01:00</time>
      </trkpt>
      <trkpt lat="44.92829" lon="3.52231">
        <ele>1049</ele>
        <time>2021-03-13T19:15:21+01:00</time>
      </trkpt>
      <trkpt lat="44.92814" lon="3.52208">
        <ele>1050</ele>
        <time>2021-03-13T19:15:26+01:00</time>
      </trkpt>
      <trkpt lat="44.92791" lon="3.52164">
        <ele>1052</ele>
        <time>2021-03-13T19:15:31+01:00</time>
      </trkpt>
      <trkpt lat="44.92778" lon="3.52147">
        <ele>1054</ele>
        <time>2021-03-13T19:15:36+01:00</time>
      </trkpt>
      <trkpt lat="44.92763" lon="3.52133">
        <ele>1056</ele>
        <time>2021-03-13T19:15:41+01:00</time>
      </trkpt>
      <trkpt lat="44.92742" lon="3.5212">
        <ele>1058</ele>
        <time>2021-03-13T19:15:46+01:00</time>
      </trkpt>
      <trkpt lat="44.92698" lon="3.52091">
        <ele>1062</ele>
        <time>2021-03-13T19:15:51+01:00</time>
      </trkpt>
      <trkpt lat="44.92655" lon="3.52064">
        <ele>1066</ele>
        <time>2021-03-13T19:15:56+01:00</time>
      </trkpt>
      <trkpt lat="44.92642" lon="3.52049">
        <ele>1067</ele>
        <time>2021-03-13T19:16:01+01:00</time>
      </trkpt>
      <trkpt lat="44.92624" lon="3.5201">
        <ele>1068</ele>
        <time>2021-03-13T19:16:06+01:00</time>
      </trkpt>
      <trkpt lat="44.92593" lon="3.51964">
        <ele>1072</ele>
        <time>2021-03-13T19:16:11+01:00</time>
      </trkpt>
      <trkpt lat="44.92573" lon="3.51938">
        <ele>1074</ele>
        <time>2021-03-13T19:16:16+01:00</time>
      </trkpt>
      <trkpt lat="44.92556" lon="3.5192">
        <ele>1075</ele>
        <time>2021-03-13T19:16:21+01:00</time>
      </trkpt>
      <trkpt lat="44.92554" lon="3.51918">
        <ele>1075</ele>
        <time>2021-03-13T19:16:26+01:00</time>
      </trkpt>
      <trkpt lat="44.92554" lon="3.51918">
        <ele>1075</ele>
        <time>2021-03-13T19:16:31+01:00</time>
      </trkpt>
      <trkpt lat="44.92519" lon="3.51881">
        <ele>1076</ele>
        <time>2021-03-13T19:16:36+01:00</time>
      </trkpt>
      <trkpt lat="44.92485" lon="3.5183">
        <ele>1077</ele>
        <time>2021-03-13T19:16:41+01:00</time>
      </trkpt>
      <trkpt lat="44.92456" lon="3.51795">
        <ele>1079</ele>
        <time>2021-03-13T19:16:46+01:00</time>
      </trkpt>
      <trkpt lat="44.92421" lon="3.51735">
        <ele>1081</ele>
        <time>2021-03-13T19:16:51+01:00</time>
      </trkpt>
      <trkpt lat="44.92384" lon="3.51659">
        <ele>1078</ele>
        <time>2021-03-13T19:16:56+01:00</time>
      </trkpt>
      <trkpt lat="44.92328" lon="3.51613">
        <ele>1075</ele>
        <time>2021-03-13T19:17:01+01:00</time>
      </trkpt>
      <trkpt lat="44.92322" lon="3.51602">
        <ele>1074</ele>
        <time>2021-03-13T19:17:06+01:00</time>
      </trkpt>
      <trkpt lat="44.92306" lon="3.51566">
        <ele>1072</ele>
        <time>2021-03-13T19:17:11+01:00</time>
      </trkpt>
      <trkpt lat="44.9228" lon="3.51499">
        <ele>1067</ele>
        <time>2021-03-13T19:17:16+01:00</time>
      </trkpt>
      <trkpt lat="44.9224" lon="3.51411">
        <ele>1064</ele>
        <time>2021-03-13T19:17:21+01:00</time>
      </trkpt>
      <trkpt lat="44.92223" lon="3.51367">
        <ele>1064</ele>
        <time>2021-03-13T19:17:26+01:00</time>
      </trkpt>
      <trkpt lat="44.92213" lon="3.51326">
        <ele>1065</ele>
        <time>2021-03-13T19:17:31+01:00</time>
      </trkpt>
      <trkpt lat="44.9217" lon="3.51151">
        <ele>1067</ele>
        <time>2021-03-13T19:17:36+01:00</time>
      </trkpt>
      <trkpt lat="44.92155" lon="3.51084">
        <ele>1066</ele>
        <time>2021-03-13T19:17:41+01:00</time>
      </trkpt>
      <trkpt lat="44.92143" lon="3.51044">
        <ele>1067</ele>
        <time>2021-03-13T19:17:46+01:00</time>
      </trkpt>
      <trkpt lat="44.92124" lon="3.50987">
        <ele>1068</ele>
        <time>2021-03-13T19:17:51+01:00</time>
      </trkpt>
      <trkpt lat="44.92101" lon="3.50937">
        <ele>1069</ele>
        <time>2021-03-13T19:17:56+01:00</time>
      </trkpt>
      <trkpt lat="44.92099" lon="3.50933">
        <ele>1069</ele>
        <time>2021-03-13T19:18:01+01:00</time>
      </trkpt>
      <trkpt lat="44.92099" lon="3.50933">
        <ele>1069</ele>
        <time>2021-03-13T19:18:06+01:00</time>
      </trkpt>
      <trkpt lat="44.92077" lon="3.50886">
        <ele>1067</ele>
        <time>2021-03-13T19:18:11+01:00</time>
      </trkpt>
      <trkpt lat="44.9205" lon="3.50815">
        <ele>1062</ele>
        <time>2021-03-13T19:18:16+01:00</time>
      </trkpt>
      <trkpt lat="44.92013" lon="3.50729">
        <ele>1055</ele>
        <time>2021-03-13T19:18:21+01:00</time>
      </trkpt>
      <trkpt lat="44.92002" lon="3.50696">
        <ele>1054</ele>
        <time>2021-03-13T19:18:26+01:00</time>
      </trkpt>
      <trkpt lat="44.91989" lon="3.50669">
        <ele>1053</ele>
        <time>2021-03-13T19:18:31+01:00</time>
      </trkpt>
      <trkpt lat="44.91972" lon="3.50642">
        <ele>1051</ele>
        <time>2021-03-13T19:18:36+01:00</time>
      </trkpt>
      <trkpt lat="44.9197" lon="3.50635">
        <ele>1051</ele>
        <time>2021-03-13T19:18:41+01:00</time>
      </trkpt>
      <trkpt lat="44.91943" lon="3.50613">
        <ele>1048</ele>
        <time>2021-03-13T19:18:46+01:00</time>
      </trkpt>
      <trkpt lat="44.9193" lon="3.50598">
        <ele>1048</ele>
        <time>2021-03-13T19:18:51+01:00</time>
      </trkpt>
      <trkpt lat="44.91923" lon="3.50587">
        <ele>1047</ele>
        <time>2021-03-13T19:18:56+01:00</time>
      </trkpt>
      <trkpt lat="44.91913" lon="3.50555">
        <ele>1047</ele>
        <time>2021-03-13T19:19:01+01:00</time>
      </trkpt>
      <trkpt lat="44.91904" lon="3.50515">
        <ele>1047</ele>
        <time>2021-03-13T19:19:06+01:00</time>
      </trkpt>
      <trkpt lat="44.91896" lon="3.50494">
        <ele>1047</ele>
        <time>2021-03-13T19:19:11+01:00</time>
      </trkpt>
      <trkpt lat="44.91888" lon="3.50488">
        <ele>1047</ele>
        <time>2021-03-13T19:19:16+01:00</time>
      </trkpt>
      <trkpt lat="44.91879" lon="3.50485">
        <ele>1048</ele>
        <time>2021-03-13T19:19:21+01:00</time>
      </trkpt>
      <trkpt lat="44.91867" lon="3.50482">
        <ele>1048</ele>
        <time>2021-03-13T19:19:26+01:00</time>
      </trkpt>
      <trkpt lat="44.91846" lon="3.50483">
        <ele>1049</ele>
        <time>2021-03-13T19:19:31+01:00</time>
      </trkpt>
      <trkpt lat="44.91823" lon="3.50495">
        <ele>1052</ele>
        <time>2021-03-13T19:19:36+01:00</time>
      </trkpt>
      <trkpt lat="44.91785" lon="3.50484">
        <ele>1059</ele>
        <time>2021-03-13T19:19:41+01:00</time>
      </trkpt>
      <trkpt lat="44.91778" lon="3.50478">
        <ele>1060</ele>
        <time>2021-03-13T19:19:46+01:00</time>
      </trkpt>
      <trkpt lat="44.91778" lon="3.50478">
        <ele>1060</ele>
        <time>2021-03-13T19:19:51+01:00</time>
      </trkpt>
      <trkpt lat="44.91769" lon="3.5047">
        <ele>1062</ele>
        <time>2021-03-13T19:19:56+01:00</time>
      </trkpt>
      <trkpt lat="44.91753" lon="3.50468">
        <ele>1065</ele>
        <time>2021-03-13T19:20:01+01:00</time>
      </trkpt>
      <trkpt lat="44.91703" lon="3.50419">
        <ele>1067</ele>
        <time>2021-03-13T19:20:06+01:00</time>
      </trkpt>
      <trkpt lat="44.91681" lon="3.5041">
        <ele>1068</ele>
        <time>2021-03-13T19:20:11+01:00</time>
      </trkpt>
      <trkpt lat="44.91664" lon="3.50408">
        <ele>1069</ele>
        <time>2021-03-13T19:20:16+01:00</time>
      </trkpt>
      <trkpt lat="44.91626" lon="3.50416">
        <ele>1070</ele>
        <time>2021-03-13T19:20:21+01:00</time>
      </trkpt>
      <trkpt lat="44.91607" lon="3.5042">
        <ele>1071</ele>
        <time>2021-03-13T19:20:26+01:00</time>
      </trkpt>
      <trkpt lat="44.91596" lon="3.50425">
        <ele>1072</ele>
        <time>2021-03-13T19:20:31+01:00</time>
      </trkpt>
      <trkpt lat="44.9158" lon="3.50437">
        <ele>1074</ele>
        <time>2021-03-13T19:20:36+01:00</time>
      </trkpt>
      <trkpt lat="44.9158" lon="3.50437">
        <ele>1074</ele>
        <time>2021-03-13T19:20:41+01:00</time>
      </trkpt>
      <trkpt lat="44.91575" lon="3.50442">
        <ele>1075</ele>
        <time>2021-03-13T19:20:46+01:00</time>
      </trkpt>
      <trkpt lat="44.91558" lon="3.50448">
        <ele>1076</ele>
        <time>2021-03-13T19:20:51+01:00</time>
      </trkpt>
      <trkpt lat="44.91543" lon="3.50455">
        <ele>1077</ele>
        <time>2021-03-13T19:20:56+01:00</time>
      </trkpt>
      <trkpt lat="44.91516" lon="3.50468">
        <ele>1078</ele>
        <time>2021-03-13T19:21:01+01:00</time>
      </trkpt>
      <trkpt lat="44.91494" lon="3.50466">
        <ele>1078</ele>
        <time>2021-03-13T19:21:06+01:00</time>
      </trkpt>
      <trkpt lat="44.91466" lon="3.50449">
        <ele>1080</ele>
        <time>2021-03-13T19:21:11+01:00</time>
      </trkpt>
      <trkpt lat="44.91448" lon="3.50439">
        <ele>1082</ele>
        <time>2021-03-13T19:21:16+01:00</time>
      </trkpt>
      <trkpt lat="44.91427" lon="3.50432">
        <ele>1083</ele>
        <time>2021-03-13T19:21:21+01:00</time>
      </trkpt>
      <trkpt lat="44.91404" lon="3.50425">
        <ele>1085</ele>
        <time>2021-03-13T19:21:26+01:00</time>
      </trkpt>
      <trkpt lat="44.91382" lon="3.50414">
        <ele>1086</ele>
        <time>2021-03-13T19:21:31+01:00</time>
      </trkpt>
      <trkpt lat="44.91352" lon="3.50397">
        <ele>1088</ele>
        <time>2021-03-13T19:21:36+01:00</time>
      </trkpt>
      <trkpt lat="44.91335" lon="3.5039">
        <ele>1089</ele>
        <time>2021-03-13T19:21:41+01:00</time>
      </trkpt>
      <trkpt lat="44.91326" lon="3.50387">
        <ele>1090</ele>
        <time>2021-03-13T19:21:46+01:00</time>
      </trkpt>
      <trkpt lat="44.91303" lon="3.50389">
        <ele>1091</ele>
        <time>2021-03-13T19:21:51+01:00</time>
      </trkpt>
      <trkpt lat="44.91285" lon="3.50388">
        <ele>1091</ele>
        <time>2021-03-13T19:21:56+01:00</time>
      </trkpt>
      <trkpt lat="44.91285" lon="3.50388">
        <ele>1091</ele>
        <time>2021-03-13T19:22:01+01:00</time>
      </trkpt>
      <trkpt lat="44.91259" lon="3.50387">
        <ele>1093</ele>
        <time>2021-03-13T19:22:06+01:00</time>
      </trkpt>
      <trkpt lat="44.91241" lon="3.5039">
        <ele>1093</ele>
        <time>2021-03-13T19:22:11+01:00</time>
      </trkpt>
      <trkpt lat="44.91234" lon="3.50395">
        <ele>1094</ele>
        <time>2021-03-13T19:22:16+01:00</time>
      </trkpt>
      <trkpt lat="44.91213" lon="3.50399">
        <ele>1094</ele>
        <time>2021-03-13T19:22:21+01:00</time>
      </trkpt>
      <trkpt lat="44.91185" lon="3.50408">
        <ele>1094</ele>
        <time>2021-03-13T19:22:26+01:00</time>
      </trkpt>
      <trkpt lat="44.91165" lon="3.50414">
        <ele>1094</ele>
        <time>2021-03-13T19:22:31+01:00</time>
      </trkpt>
      <trkpt lat="44.91165" lon="3.50414">
        <ele>1094</ele>
        <time>2021-03-13T19:22:36+01:00</time>
      </trkpt>
      <trkpt lat="44.91115" lon="3.50423">
        <ele>1096</ele>
        <time>2021-03-13T19:22:41+01:00</time>
      </trkpt>
      <trkpt lat="44.91105" lon="3.50432">
        <ele>1096</ele>
        <time>2021-03-13T19:22:46+01:00</time>
      </trkpt>
      <trkpt lat="44.91098" lon="3.50445">
        <ele>1095</ele>
        <time>2021-03-13T19:22:51+01:00</time>
      </trkpt>
      <trkpt lat="44.91079" lon="3.50488">
        <ele>1091</ele>
        <time>2021-03-13T19:22:56+01:00</time>
      </trkpt>
      <trkpt lat="44.91056" lon="3.50498">
        <ele>1092</ele>
        <time>2021-03-13T19:23:01+01:00</time>
      </trkpt>
      <trkpt lat="44.91043" lon="3.50498">
        <ele>1093</ele>
        <time>2021-03-13T19:23:06+01:00</time>
      </trkpt>
      <trkpt lat="44.91019" lon="3.50524">
        <ele>1093</ele>
        <time>2021-03-13T19:23:11+01:00</time>
      </trkpt>
      <trkpt lat="44.91004" lon="3.5053">
        <ele>1094</ele>
        <time>2021-03-13T19:23:16+01:00</time>
      </trkpt>
      <trkpt lat="44.90995" lon="3.50527">
        <ele>1094</ele>
        <time>2021-03-13T19:23:21+01:00</time>
      </trkpt>
      <trkpt lat="44.90985" lon="3.50517">
        <ele>1094</ele>
        <time>2021-03-13T19:23:26+01:00</time>
      </trkpt>
      <trkpt lat="44.90985" lon="3.50517">
        <ele>1094</ele>
        <time>2021-03-13T19:23:31+01:00</time>
      </trkpt>
      <trkpt lat="44.90972" lon="3.505">
        <ele>1094</ele>
        <time>2021-03-13T19:23:36+01:00</time>
      </trkpt>
      <trkpt lat="44.90967" lon="3.50479">
        <ele>1096</ele>
        <time>2021-03-13T19:23:41+01:00</time>
      </trkpt>
      <trkpt lat="44.90966" lon="3.50462">
        <ele>1098</ele>
        <time>2021-03-13T19:23:46+01:00</time>
      </trkpt>
      <trkpt lat="44.90968" lon="3.50427">
        <ele>1101</ele>
        <time>2021-03-13T19:23:51+01:00</time>
      </trkpt>
      <trkpt lat="44.90967" lon="3.50405">
        <ele>1103</ele>
        <time>2021-03-13T19:23:56+01:00</time>
      </trkpt>
      <trkpt lat="44.90963" lon="3.50394">
        <ele>1103</ele>
        <time>2021-03-13T19:24:01+01:00</time>
      </trkpt>
      <trkpt lat="44.90955" lon="3.50387">
        <ele>1104</ele>
        <time>2021-03-13T19:24:06+01:00</time>
      </trkpt>
      <trkpt lat="44.9094" lon="3.5038">
        <ele>1104</ele>
        <time>2021-03-13T19:24:11+01:00</time>
      </trkpt>
      <trkpt lat="44.90924" lon="3.50372">
        <ele>1105</ele>
        <time>2021-03-13T19:24:16+01:00</time>
      </trkpt>
      <trkpt lat="44.90908" lon="3.50369">
        <ele>1104</ele>
        <time>2021-03-13T19:24:21+01:00</time>
      </trkpt>
      <trkpt lat="44.90889" lon="3.50359">
        <ele>1103</ele>
        <time>2021-03-13T19:24:26+01:00</time>
      </trkpt>
      <trkpt lat="44.90889" lon="3.50359">
        <ele>1103</ele>
        <time>2021-03-13T19:24:31+01:00</time>
      </trkpt>
      <trkpt lat="44.90863" lon="3.50312">
        <ele>1103</ele>
        <time>2021-03-13T19:24:36+01:00</time>
      </trkpt>
      <trkpt lat="44.90842" lon="3.50271">
        <ele>1103</ele>
        <time>2021-03-13T19:24:41+01:00</time>
      </trkpt>
      <trkpt lat="44.90827" lon="3.50248">
        <ele>1103</ele>
        <time>2021-03-13T19:24:46+01:00</time>
      </trkpt>
      <trkpt lat="44.90784" lon="3.50203">
        <ele>1100</ele>
        <time>2021-03-13T19:24:51+01:00</time>
      </trkpt>
      <trkpt lat="44.90772" lon="3.50196">
        <ele>1099</ele>
        <time>2021-03-13T19:24:56+01:00</time>
      </trkpt>
      <trkpt lat="44.9072" lon="3.50192">
        <ele>1098</ele>
        <time>2021-03-13T19:25:01+01:00</time>
      </trkpt>
      <trkpt lat="44.90705" lon="3.50192">
        <ele>1098</ele>
        <time>2021-03-13T19:25:06+01:00</time>
      </trkpt>
      <trkpt lat="44.90705" lon="3.50192">
        <ele>1098</ele>
        <time>2021-03-13T19:25:11+01:00</time>
      </trkpt>
      <trkpt lat="44.90665" lon="3.50192">
        <ele>1098</ele>
        <time>2021-03-13T19:25:16+01:00</time>
      </trkpt>
      <trkpt lat="44.90609" lon="3.50194">
        <ele>1100</ele>
        <time>2021-03-13T19:25:21+01:00</time>
      </trkpt>
      <trkpt lat="44.90564" lon="3.50205">
        <ele>1103</ele>
        <time>2021-03-13T19:25:26+01:00</time>
      </trkpt>
      <trkpt lat="44.90544" lon="3.50205">
        <ele>1104</ele>
        <time>2021-03-13T19:25:31+01:00</time>
      </trkpt>
      <trkpt lat="44.90527" lon="3.50201">
        <ele>1105</ele>
        <time>2021-03-13T19:25:36+01:00</time>
      </trkpt>
      <trkpt lat="44.90478" lon="3.50188">
        <ele>1106</ele>
        <time>2021-03-13T19:25:41+01:00</time>
      </trkpt>
      <trkpt lat="44.90434" lon="3.50192">
        <ele>1109</ele>
        <time>2021-03-13T19:25:46+01:00</time>
      </trkpt>
      <trkpt lat="44.90413" lon="3.5019">
        <ele>1110</ele>
        <time>2021-03-13T19:25:51+01:00</time>
      </trkpt>
      <trkpt lat="44.90393" lon="3.50182">
        <ele>1110</ele>
        <time>2021-03-13T19:25:56+01:00</time>
      </trkpt>
      <trkpt lat="44.90383" lon="3.50176">
        <ele>1110</ele>
        <time>2021-03-13T19:26:01+01:00</time>
      </trkpt>
      <trkpt lat="44.90355" lon="3.5015">
        <ele>1109</ele>
        <time>2021-03-13T19:26:06+01:00</time>
      </trkpt>
      <trkpt lat="44.90338" lon="3.50131">
        <ele>1109</ele>
        <time>2021-03-13T19:26:11+01:00</time>
      </trkpt>
      <trkpt lat="44.90338" lon="3.50131">
        <ele>1109</ele>
        <time>2021-03-13T19:26:16+01:00</time>
      </trkpt>
      <trkpt lat="44.90326" lon="3.50119">
        <ele>1110</ele>
        <time>2021-03-13T19:26:21+01:00</time>
      </trkpt>
      <trkpt lat="44.90306" lon="3.50106">
        <ele>1112</ele>
        <time>2021-03-13T19:26:26+01:00</time>
      </trkpt>
      <trkpt lat="44.90272" lon="3.5009">
        <ele>1115</ele>
        <time>2021-03-13T19:26:31+01:00</time>
      </trkpt>
      <trkpt lat="44.90225" lon="3.5006">
        <ele>1117</ele>
        <time>2021-03-13T19:26:36+01:00</time>
      </trkpt>
      <trkpt lat="44.902" lon="3.50048">
        <ele>1117</ele>
        <time>2021-03-13T19:26:41+01:00</time>
      </trkpt>
      <trkpt lat="44.90172" lon="3.50039">
        <ele>1118</ele>
        <time>2021-03-13T19:26:46+01:00</time>
      </trkpt>
      <trkpt lat="44.9014" lon="3.50032">
        <ele>1118</ele>
        <time>2021-03-13T19:26:51+01:00</time>
      </trkpt>
      <trkpt lat="44.90117" lon="3.50032">
        <ele>1118</ele>
        <time>2021-03-13T19:26:56+01:00</time>
      </trkpt>
      <trkpt lat="44.90088" lon="3.50035">
        <ele>1120</ele>
        <time>2021-03-13T19:27:01+01:00</time>
      </trkpt>
      <trkpt lat="44.89979" lon="3.50053">
        <ele>1126</ele>
        <time>2021-03-13T19:27:06+01:00</time>
      </trkpt>
      <trkpt lat="44.89939" lon="3.50064">
        <ele>1128</ele>
        <time>2021-03-13T19:27:11+01:00</time>
      </trkpt>
      <trkpt lat="44.89913" lon="3.50078">
        <ele>1129</ele>
        <time>2021-03-13T19:27:16+01:00</time>
      </trkpt>
      <trkpt lat="44.89882" lon="3.50092">
        <ele>1129</ele>
        <time>2021-03-13T19:27:21+01:00</time>
      </trkpt>
      <trkpt lat="44.89882" lon="3.50093">
        <ele>1130</ele>
        <time>2021-03-13T19:27:26+01:00</time>
      </trkpt>
      <trkpt lat="44.89872" lon="3.50094">
        <ele>1129</ele>
        <time>2021-03-13T19:27:31+01:00</time>
      </trkpt>
      <trkpt lat="44.89846" lon="3.50086">
        <ele>1127</ele>
        <time>2021-03-13T19:27:36+01:00</time>
      </trkpt>
      <trkpt lat="44.89791" lon="3.50056">
        <ele>1129</ele>
        <time>2021-03-13T19:27:41+01:00</time>
      </trkpt>
      <trkpt lat="44.89726" lon="3.50032">
        <ele>1135</ele>
        <time>2021-03-13T19:27:46+01:00</time>
      </trkpt>
      <trkpt lat="44.89666" lon="3.50014">
        <ele>1141</ele>
        <time>2021-03-13T19:27:51+01:00</time>
      </trkpt>
      <trkpt lat="44.89628" lon="3.50003">
        <ele>1146</ele>
        <time>2021-03-13T19:27:56+01:00</time>
      </trkpt>
      <trkpt lat="44.89607" lon="3.5">
        <ele>1141</ele>
        <time>2021-03-13T19:28:01+01:00</time>
      </trkpt>
      <trkpt lat="44.89588" lon="3.49999">
        <ele>1150</ele>
        <time>2021-03-13T19:28:06+01:00</time>
      </trkpt>
      <trkpt lat="44.89568" lon="3.50003">
        <ele>1152</ele>
        <time>2021-03-13T19:28:11+01:00</time>
      </trkpt>
      <trkpt lat="44.8954" lon="3.50011">
        <ele>1153</ele>
        <time>2021-03-13T19:28:16+01:00</time>
      </trkpt>
      <trkpt lat="44.89512" lon="3.50021">
        <ele>1153</ele>
        <time>2021-03-13T19:28:21+01:00</time>
      </trkpt>
      <trkpt lat="44.89501" lon="3.50023">
        <ele>1154</ele>
        <time>2021-03-13T19:28:26+01:00</time>
      </trkpt>
      <trkpt lat="44.89487" lon="3.50019">
        <ele>1154</ele>
        <time>2021-03-13T19:28:31+01:00</time>
      </trkpt>
      <trkpt lat="44.89484" lon="3.50026">
        <ele>1153</ele>
        <time>2021-03-13T19:28:36+01:00</time>
      </trkpt>
      <trkpt lat="44.89464" lon="3.50023">
        <ele>1153</ele>
        <time>2021-03-13T19:28:41+01:00</time>
      </trkpt>
      <trkpt lat="44.89426" lon="3.50009">
        <ele>1153</ele>
        <time>2021-03-13T19:28:46+01:00</time>
      </trkpt>
      <trkpt lat="44.8937" lon="3.4998">
        <ele>1150</ele>
        <time>2021-03-13T19:28:51+01:00</time>
      </trkpt>
      <trkpt lat="44.8937" lon="3.4998">
        <ele>1150</ele>
        <time>2021-03-13T19:28:56+01:00</time>
      </trkpt>
      <trkpt lat="44.89341" lon="3.49965">
        <ele>1147</ele>
        <time>2021-03-13T19:29:01+01:00</time>
      </trkpt>
      <trkpt lat="44.89315" lon="3.49946">
        <ele>1146</ele>
        <time>2021-03-13T19:29:06+01:00</time>
      </trkpt>
      <trkpt lat="44.89297" lon="3.49928">
        <ele>1145</ele>
        <time>2021-03-13T19:29:11+01:00</time>
      </trkpt>
      <trkpt lat="44.89276" lon="3.49887">
        <ele>1146</ele>
        <time>2021-03-13T19:29:16+01:00</time>
      </trkpt>
      <trkpt lat="44.89262" lon="3.49867">
        <ele>1146</ele>
        <time>2021-03-13T19:29:21+01:00</time>
      </trkpt>
      <trkpt lat="44.89246" lon="3.4985">
        <ele>1145</ele>
        <time>2021-03-13T19:29:26+01:00</time>
      </trkpt>
      <trkpt lat="44.89222" lon="3.49801">
        <ele>1147</ele>
        <time>2021-03-13T19:29:31+01:00</time>
      </trkpt>
      <trkpt lat="44.89161" lon="3.49695">
        <ele>1145</ele>
        <time>2021-03-13T19:29:36+01:00</time>
      </trkpt>
      <trkpt lat="44.89134" lon="3.49642">
        <ele>1146</ele>
        <time>2021-03-13T19:29:41+01:00</time>
      </trkpt>
      <trkpt lat="44.89128" lon="3.49636">
        <ele>1146</ele>
        <time>2021-03-13T19:29:46+01:00</time>
      </trkpt>
      <trkpt lat="44.89119" lon="3.49631">
        <ele>1145</ele>
        <time>2021-03-13T19:29:51+01:00</time>
      </trkpt>
      <trkpt lat="44.89078" lon="3.49627">
        <ele>1140</ele>
        <time>2021-03-13T19:29:56+01:00</time>
      </trkpt>
      <trkpt lat="44.89068" lon="3.49624">
        <ele>1140</ele>
        <time>2021-03-13T19:30:01+01:00</time>
      </trkpt>
      <trkpt lat="44.89068" lon="3.49624">
        <ele>1140</ele>
        <time>2021-03-13T19:30:06+01:00</time>
      </trkpt>
      <trkpt lat="44.89047" lon="3.49615">
        <ele>1139</ele>
        <time>2021-03-13T19:30:11+01:00</time>
      </trkpt>
      <trkpt lat="44.8903" lon="3.49596">
        <ele>1139</ele>
        <time>2021-03-13T19:30:16+01:00</time>
      </trkpt>
      <trkpt lat="44.89009" lon="3.49568">
        <ele>1138</ele>
        <time>2021-03-13T19:30:21+01:00</time>
      </trkpt>
      <trkpt lat="44.89002" lon="3.49542">
        <ele>1139</ele>
        <time>2021-03-13T19:30:26+01:00</time>
      </trkpt>
      <trkpt lat="44.88991" lon="3.49523">
        <ele>1139</ele>
        <time>2021-03-13T19:30:31+01:00</time>
      </trkpt>
      <trkpt lat="44.88983" lon="3.49509">
        <ele>1139</ele>
        <time>2021-03-13T19:30:36+01:00</time>
      </trkpt>
      <trkpt lat="44.88976" lon="3.49499">
        <ele>1140</ele>
        <time>2021-03-13T19:30:41+01:00</time>
      </trkpt>
      <trkpt lat="44.88967" lon="3.49493">
        <ele>1139</ele>
        <time>2021-03-13T19:30:46+01:00</time>
      </trkpt>
      <trkpt lat="44.88948" lon="3.49491">
        <ele>1139</ele>
        <time>2021-03-13T19:30:51+01:00</time>
      </trkpt>
      <trkpt lat="44.8893" lon="3.49498">
        <ele>1137</ele>
        <time>2021-03-13T19:30:56+01:00</time>
      </trkpt>
      <trkpt lat="44.8892" lon="3.49499">
        <ele>1136</ele>
        <time>2021-03-13T19:31:01+01:00</time>
      </trkpt>
      <trkpt lat="44.88844" lon="3.49451">
        <ele>1140</ele>
        <time>2021-03-13T19:31:06+01:00</time>
      </trkpt>
      <trkpt lat="44.88816" lon="3.49433">
        <ele>1144</ele>
        <time>2021-03-13T19:31:11+01:00</time>
      </trkpt>
      <trkpt lat="44.88796" lon="3.49464">
        <ele>1144</ele>
        <time>2021-03-13T19:31:16+01:00</time>
      </trkpt>
      <trkpt lat="44.88758" lon="3.4954">
        <ele>1146</ele>
        <time>2021-03-13T19:31:21+01:00</time>
      </trkpt>
      <trkpt lat="44.88749" lon="3.49567">
        <ele>1146</ele>
        <time>2021-03-13T19:31:26+01:00</time>
      </trkpt>
      <trkpt lat="44.88741" lon="3.49568">
        <ele>1147</ele>
        <time>2021-03-13T19:31:31+01:00</time>
      </trkpt>
      <trkpt lat="44.88735" lon="3.49573">
        <ele>1148</ele>
        <time>2021-03-13T19:31:36+01:00</time>
      </trkpt>
      <trkpt lat="44.88716" lon="3.49594">
        <ele>1151</ele>
        <time>2021-03-13T19:31:41+01:00</time>
      </trkpt>
      <trkpt lat="44.88704" lon="3.49609">
        <ele>1152</ele>
        <time>2021-03-13T19:31:46+01:00</time>
      </trkpt>
      <trkpt lat="44.88704" lon="3.49609">
        <ele>1152</ele>
        <time>2021-03-13T19:31:51+01:00</time>
      </trkpt>
      <trkpt lat="44.88674" lon="3.49644">
        <ele>1155</ele>
        <time>2021-03-13T19:31:56+01:00</time>
      </trkpt>
      <trkpt lat="44.88641" lon="3.49669">
        <ele>1155</ele>
        <time>2021-03-13T19:32:01+01:00</time>
      </trkpt>
      <trkpt lat="44.88625" lon="3.49677">
        <ele>1155</ele>
        <time>2021-03-13T19:32:06+01:00</time>
      </trkpt>
      <trkpt lat="44.88601" lon="3.49682">
        <ele>1155</ele>
        <time>2021-03-13T19:32:11+01:00</time>
      </trkpt>
      <trkpt lat="44.88573" lon="3.49683">
        <ele>1154</ele>
        <time>2021-03-13T19:32:16+01:00</time>
      </trkpt>
      <trkpt lat="44.8855" lon="3.49682">
        <ele>1154</ele>
        <time>2021-03-13T19:32:21+01:00</time>
      </trkpt>
      <trkpt lat="44.8848" lon="3.49671">
        <ele>1152</ele>
        <time>2021-03-13T19:32:26+01:00</time>
      </trkpt>
      <trkpt lat="44.88446" lon="3.4967">
        <ele>1152</ele>
        <time>2021-03-13T19:32:31+01:00</time>
      </trkpt>
      <trkpt lat="44.88419" lon="3.49675">
        <ele>1151</ele>
        <time>2021-03-13T19:32:36+01:00</time>
      </trkpt>
      <trkpt lat="44.88409" lon="3.49679">
        <ele>1151</ele>
        <time>2021-03-13T19:32:41+01:00</time>
      </trkpt>
      <trkpt lat="44.884" lon="3.49687">
        <ele>1151</ele>
        <time>2021-03-13T19:32:46+01:00</time>
      </trkpt>
      <trkpt lat="44.88387" lon="3.4971">
        <ele>1151</ele>
        <time>2021-03-13T19:32:51+01:00</time>
      </trkpt>
      <trkpt lat="44.8834" lon="3.4981">
        <ele>1149</ele>
        <time>2021-03-13T19:32:56+01:00</time>
      </trkpt>
      <trkpt lat="44.88329" lon="3.4983">
        <ele>1149</ele>
        <time>2021-03-13T19:33:01+01:00</time>
      </trkpt>
      <trkpt lat="44.88329" lon="3.4983">
        <ele>1149</ele>
        <time>2021-03-13T19:33:06+01:00</time>
      </trkpt>
      <trkpt lat="44.8832" lon="3.49842">
        <ele>1148</ele>
        <time>2021-03-13T19:33:11+01:00</time>
      </trkpt>
      <trkpt lat="44.883" lon="3.49866">
        <ele>1146</ele>
        <time>2021-03-13T19:33:16+01:00</time>
      </trkpt>
      <trkpt lat="44.88286" lon="3.49877">
        <ele>1145</ele>
        <time>2021-03-13T19:33:21+01:00</time>
      </trkpt>
      <trkpt lat="44.88254" lon="3.49895">
        <ele>1143</ele>
        <time>2021-03-13T19:33:26+01:00</time>
      </trkpt>
      <trkpt lat="44.88216" lon="3.49906">
        <ele>1139</ele>
        <time>2021-03-13T19:33:31+01:00</time>
      </trkpt>
      <trkpt lat="44.88209" lon="3.49904">
        <ele>1139</ele>
        <time>2021-03-13T19:33:36+01:00</time>
      </trkpt>
      <trkpt lat="44.88202" lon="3.49898">
        <ele>1139</ele>
        <time>2021-03-13T19:33:41+01:00</time>
      </trkpt>
      <trkpt lat="44.88195" lon="3.49895">
        <ele>1138</ele>
        <time>2021-03-13T19:33:46+01:00</time>
      </trkpt>
      <trkpt lat="44.88183" lon="3.49896">
        <ele>1137</ele>
        <time>2021-03-13T19:33:51+01:00</time>
      </trkpt>
      <trkpt lat="44.88163" lon="3.49903">
        <ele>1135</ele>
        <time>2021-03-13T19:33:56+01:00</time>
      </trkpt>
      <trkpt lat="44.8815" lon="3.49906">
        <ele>1134</ele>
        <time>2021-03-13T19:34:01+01:00</time>
      </trkpt>
      <trkpt lat="44.88147" lon="3.49904">
        <ele>1133</ele>
        <time>2021-03-13T19:34:06+01:00</time>
      </trkpt>
      <trkpt lat="44.88143" lon="3.4991">
        <ele>1133</ele>
        <time>2021-03-13T19:34:11+01:00</time>
      </trkpt>
      <trkpt lat="44.88135" lon="3.49919">
        <ele>1132</ele>
        <time>2021-03-13T19:34:16+01:00</time>
      </trkpt>
      <trkpt lat="44.88096" lon="3.49948">
        <ele>1129</ele>
        <time>2021-03-13T19:34:21+01:00</time>
      </trkpt>
      <trkpt lat="44.8809" lon="3.49931">
        <ele>1128</ele>
        <time>2021-03-13T19:34:26+01:00</time>
      </trkpt>
      <trkpt lat="44.8808" lon="3.49931">
        <ele>1127</ele>
        <time>2021-03-13T19:34:31+01:00</time>
      </trkpt>
      <trkpt lat="44.88051" lon="3.49933">
        <ele>1122</ele>
        <time>2021-03-13T19:34:36+01:00</time>
      </trkpt>
      <trkpt lat="44.88033" lon="3.49939">
        <ele>1119</ele>
        <time>2021-03-13T19:34:41+01:00</time>
      </trkpt>
      <trkpt lat="44.88021" lon="3.49948">
        <ele>1116</ele>
        <time>2021-03-13T19:34:46+01:00</time>
      </trkpt>
      <trkpt lat="44.88023" lon="3.49977">
        <ele>1117</ele>
        <time>2021-03-13T19:34:51+01:00</time>
      </trkpt>
      <trkpt lat="44.88023" lon="3.4999">
        <ele>1117</ele>
        <time>2021-03-13T19:34:56+01:00</time>
      </trkpt>
      <trkpt lat="44.88021" lon="3.49999">
        <ele>1116</ele>
        <time>2021-03-13T19:35:01+01:00</time>
      </trkpt>
      <trkpt lat="44.88013" lon="3.50011">
        <ele>1113</ele>
        <time>2021-03-13T19:35:06+01:00</time>
      </trkpt>
      <trkpt lat="44.87999" lon="3.50002">
        <ele>1112</ele>
        <time>2021-03-13T19:35:11+01:00</time>
      </trkpt>
      <trkpt lat="44.87993" lon="3.49996">
        <ele>1111</ele>
        <time>2021-03-13T19:35:16+01:00</time>
      </trkpt>
      <trkpt lat="44.87987" lon="3.49994">
        <ele>1110</ele>
        <time>2021-03-13T19:35:21+01:00</time>
      </trkpt>
      <trkpt lat="44.87981" lon="3.49997">
        <ele>1108</ele>
        <time>2021-03-13T19:35:26+01:00</time>
      </trkpt>
      <trkpt lat="44.87967" lon="3.5001">
        <ele>1105</ele>
        <time>2021-03-13T19:35:31+01:00</time>
      </trkpt>
      <trkpt lat="44.8795" lon="3.50016">
        <ele>1101</ele>
        <time>2021-03-13T19:35:36+01:00</time>
      </trkpt>
      <trkpt lat="44.87938" lon="3.50016">
        <ele>1099</ele>
        <time>2021-03-13T19:35:41+01:00</time>
      </trkpt>
      <trkpt lat="44.87938" lon="3.50016">
        <ele>1099</ele>
        <time>2021-03-13T19:35:46+01:00</time>
      </trkpt>
      <trkpt lat="44.87888" lon="3.50022">
        <ele>1096</ele>
        <time>2021-03-13T19:35:51+01:00</time>
      </trkpt>
      <trkpt lat="44.87875" lon="3.50014">
        <ele>1096</ele>
        <time>2021-03-13T19:35:56+01:00</time>
      </trkpt>
      <trkpt lat="44.87856" lon="3.50005">
        <ele>1096</ele>
        <time>2021-03-13T19:36:01+01:00</time>
      </trkpt>
      <trkpt lat="44.87836" lon="3.50004">
        <ele>1096</ele>
        <time>2021-03-13T19:36:06+01:00</time>
      </trkpt>
      <trkpt lat="44.87831" lon="3.50011">
        <ele>1096</ele>
        <time>2021-03-13T19:36:11+01:00</time>
      </trkpt>
      <trkpt lat="44.8782" lon="3.50039">
        <ele>1097</ele>
        <time>2021-03-13T19:36:16+01:00</time>
      </trkpt>
      <trkpt lat="44.87804" lon="3.50092">
        <ele>1100</ele>
        <time>2021-03-13T19:36:21+01:00</time>
      </trkpt>
      <trkpt lat="44.87796" lon="3.50116">
        <ele>1102</ele>
        <time>2021-03-13T19:36:26+01:00</time>
      </trkpt>
      <trkpt lat="44.8779" lon="3.50127">
        <ele>1104</ele>
        <time>2021-03-13T19:36:31+01:00</time>
      </trkpt>
      <trkpt lat="44.87785" lon="3.50133">
        <ele>1105</ele>
        <time>2021-03-13T19:36:36+01:00</time>
      </trkpt>
      <trkpt lat="44.87781" lon="3.50132">
        <ele>1105</ele>
        <time>2021-03-13T19:36:41+01:00</time>
      </trkpt>
      <trkpt lat="44.87772" lon="3.50121">
        <ele>1107</ele>
        <time>2021-03-13T19:36:46+01:00</time>
      </trkpt>
      <trkpt lat="44.87767" lon="3.50116">
        <ele>1107</ele>
        <time>2021-03-13T19:36:51+01:00</time>
      </trkpt>
      <trkpt lat="44.87755" lon="3.50113">
        <ele>1109</ele>
        <time>2021-03-13T19:36:56+01:00</time>
      </trkpt>
      <trkpt lat="44.87739" lon="3.50113">
        <ele>1111</ele>
        <time>2021-03-13T19:37:01+01:00</time>
      </trkpt>
      <trkpt lat="44.87733" lon="3.50115">
        <ele>1111</ele>
        <time>2021-03-13T19:37:06+01:00</time>
      </trkpt>
      <trkpt lat="44.87723" lon="3.50129">
        <ele>1112</ele>
        <time>2021-03-13T19:37:11+01:00</time>
      </trkpt>
      <trkpt lat="44.87713" lon="3.50142">
        <ele>1113</ele>
        <time>2021-03-13T19:37:16+01:00</time>
      </trkpt>
      <trkpt lat="44.87672" lon="3.50173">
        <ele>1117</ele>
        <time>2021-03-13T19:37:21+01:00</time>
      </trkpt>
      <trkpt lat="44.87656" lon="3.50183">
        <ele>1119</ele>
        <time>2021-03-13T19:37:26+01:00</time>
      </trkpt>
      <trkpt lat="44.87642" lon="3.50187">
        <ele>1121</ele>
        <time>2021-03-13T19:37:31+01:00</time>
      </trkpt>
      <trkpt lat="44.87642" lon="3.50187">
        <ele>1121</ele>
        <time>2021-03-13T19:37:36+01:00</time>
      </trkpt>
      <trkpt lat="44.87621" lon="3.50194">
        <ele>1124</ele>
        <time>2021-03-13T19:37:41+01:00</time>
      </trkpt>
      <trkpt lat="44.87609" lon="3.50198">
        <ele>1125</ele>
        <time>2021-03-13T19:37:46+01:00</time>
      </trkpt>
      <trkpt lat="44.87598" lon="3.50206">
        <ele>1127</ele>
        <time>2021-03-13T19:37:51+01:00</time>
      </trkpt>
      <trkpt lat="44.87576" lon="3.50228">
        <ele>1130</ele>
        <time>2021-03-13T19:37:56+01:00</time>
      </trkpt>
      <trkpt lat="44.8756" lon="3.50244">
        <ele>1133</ele>
        <time>2021-03-13T19:38:01+01:00</time>
      </trkpt>
      <trkpt lat="44.87541" lon="3.50257">
        <ele>1136</ele>
        <time>2021-03-13T19:38:06+01:00</time>
      </trkpt>
      <trkpt lat="44.87517" lon="3.50269">
        <ele>1140</ele>
        <time>2021-03-13T19:38:11+01:00</time>
      </trkpt>
      <trkpt lat="44.87501" lon="3.50273">
        <ele>1142</ele>
        <time>2021-03-13T19:38:16+01:00</time>
      </trkpt>
      <trkpt lat="44.87491" lon="3.50272">
        <ele>1144</ele>
        <time>2021-03-13T19:38:21+01:00</time>
      </trkpt>
      <trkpt lat="44.87483" lon="3.50275">
        <ele>1146</ele>
        <time>2021-03-13T19:38:26+01:00</time>
      </trkpt>
      <trkpt lat="44.87459" lon="3.50295">
        <ele>1150</ele>
        <time>2021-03-13T19:38:31+01:00</time>
      </trkpt>
      <trkpt lat="44.87444" lon="3.50303">
        <ele>1152</ele>
        <time>2021-03-13T19:38:36+01:00</time>
      </trkpt>
      <trkpt lat="44.87455" lon="3.50273">
        <ele>1152</ele>
        <time>2021-03-13T19:38:41+01:00</time>
      </trkpt>
      <trkpt lat="44.87467" lon="3.50239">
        <ele>1151</ele>
        <time>2021-03-13T19:38:46+01:00</time>
      </trkpt>
      <trkpt lat="44.8747" lon="3.50219">
        <ele>1150</ele>
        <time>2021-03-13T19:38:51+01:00</time>
      </trkpt>
      <trkpt lat="44.87471" lon="3.50186">
        <ele>1151</ele>
        <time>2021-03-13T19:38:56+01:00</time>
      </trkpt>
      <trkpt lat="44.87463" lon="3.50088">
        <ele>1147</ele>
        <time>2021-03-13T19:39:01+01:00</time>
      </trkpt>
      <trkpt lat="44.8746" lon="3.50058">
        <ele>1145</ele>
        <time>2021-03-13T19:39:06+01:00</time>
      </trkpt>
      <trkpt lat="44.87453" lon="3.5003">
        <ele>1143</ele>
        <time>2021-03-13T19:39:11+01:00</time>
      </trkpt>
      <trkpt lat="44.87438" lon="3.49975">
        <ele>1139</ele>
        <time>2021-03-13T19:39:16+01:00</time>
      </trkpt>
      <trkpt lat="44.87387" lon="3.49831">
        <ele>1129</ele>
        <time>2021-03-13T19:39:21+01:00</time>
      </trkpt>
      <trkpt lat="44.8737" lon="3.49785">
        <ele>1126</ele>
        <time>2021-03-13T19:39:26+01:00</time>
      </trkpt>
      <trkpt lat="44.8737" lon="3.49785">
        <ele>1126</ele>
        <time>2021-03-13T19:39:31+01:00</time>
      </trkpt>
      <trkpt lat="44.87351" lon="3.49745">
        <ele>1123</ele>
        <time>2021-03-13T19:39:36+01:00</time>
      </trkpt>
      <trkpt lat="44.87315" lon="3.49688">
        <ele>1120</ele>
        <time>2021-03-13T19:39:41+01:00</time>
      </trkpt>
      <trkpt lat="44.87293" lon="3.49658">
        <ele>1117</ele>
        <time>2021-03-13T19:39:46+01:00</time>
      </trkpt>
      <trkpt lat="44.8725" lon="3.49633">
        <ele>1113</ele>
        <time>2021-03-13T19:39:51+01:00</time>
      </trkpt>
      <trkpt lat="44.87224" lon="3.49614">
        <ele>1112</ele>
        <time>2021-03-13T19:39:56+01:00</time>
      </trkpt>
      <trkpt lat="44.87215" lon="3.49602">
        <ele>1111</ele>
        <time>2021-03-13T19:40:01+01:00</time>
      </trkpt>
      <trkpt lat="44.87206" lon="3.49578">
        <ele>1109</ele>
        <time>2021-03-13T19:40:06+01:00</time>
      </trkpt>
      <trkpt lat="44.87192" lon="3.49539">
        <ele>1107</ele>
        <time>2021-03-13T19:40:11+01:00</time>
      </trkpt>
      <trkpt lat="44.87182" lon="3.49523">
        <ele>1105</ele>
        <time>2021-03-13T19:40:16+01:00</time>
      </trkpt>
      <trkpt lat="44.87175" lon="3.49521">
        <ele>1105</ele>
        <time>2021-03-13T19:40:21+01:00</time>
      </trkpt>
      <trkpt lat="44.87147" lon="3.49533">
        <ele>1106</ele>
        <time>2021-03-13T19:40:26+01:00</time>
      </trkpt>
      <trkpt lat="44.87119" lon="3.49548">
        <ele>1107</ele>
        <time>2021-03-13T19:40:31+01:00</time>
      </trkpt>
      <trkpt lat="44.87078" lon="3.49562">
        <ele>1108</ele>
        <time>2021-03-13T19:40:36+01:00</time>
      </trkpt>
      <trkpt lat="44.8706" lon="3.49577">
        <ele>1109</ele>
        <time>2021-03-13T19:40:41+01:00</time>
      </trkpt>
      <trkpt lat="44.87034" lon="3.4958">
        <ele>1110</ele>
        <time>2021-03-13T19:40:46+01:00</time>
      </trkpt>
      <trkpt lat="44.86992" lon="3.49574">
        <ele>1111</ele>
        <time>2021-03-13T19:40:51+01:00</time>
      </trkpt>
      <trkpt lat="44.86968" lon="3.49576">
        <ele>1112</ele>
        <time>2021-03-13T19:40:56+01:00</time>
      </trkpt>
      <trkpt lat="44.86953" lon="3.49579">
        <ele>1113</ele>
        <time>2021-03-13T19:41:01+01:00</time>
      </trkpt>
      <trkpt lat="44.86936" lon="3.49588">
        <ele>1115</ele>
        <time>2021-03-13T19:41:06+01:00</time>
      </trkpt>
      <trkpt lat="44.8692" lon="3.49593">
        <ele>1116</ele>
        <time>2021-03-13T19:41:11+01:00</time>
      </trkpt>
      <trkpt lat="44.86873" lon="3.49605">
        <ele>1118</ele>
        <time>2021-03-13T19:41:16+01:00</time>
      </trkpt>
      <trkpt lat="44.86838" lon="3.49611">
        <ele>1119</ele>
        <time>2021-03-13T19:41:21+01:00</time>
      </trkpt>
      <trkpt lat="44.86798" lon="3.49625">
        <ele>1121</ele>
        <time>2021-03-13T19:41:26+01:00</time>
      </trkpt>
      <trkpt lat="44.86792" lon="3.49624">
        <ele>1121</ele>
        <time>2021-03-13T19:41:31+01:00</time>
      </trkpt>
      <trkpt lat="44.86792" lon="3.49624">
        <ele>1121</ele>
        <time>2021-03-13T19:41:36+01:00</time>
      </trkpt>
      <trkpt lat="44.86775" lon="3.49615">
        <ele>1121</ele>
        <time>2021-03-13T19:41:41+01:00</time>
      </trkpt>
      <trkpt lat="44.86757" lon="3.49603">
        <ele>1120</ele>
        <time>2021-03-13T19:41:46+01:00</time>
      </trkpt>
      <trkpt lat="44.86741" lon="3.49597">
        <ele>1121</ele>
        <time>2021-03-13T19:41:51+01:00</time>
      </trkpt>
      <trkpt lat="44.86714" lon="3.49592">
        <ele>1122</ele>
        <time>2021-03-13T19:41:56+01:00</time>
      </trkpt>
      <trkpt lat="44.86675" lon="3.4959">
        <ele>1124</ele>
        <time>2021-03-13T19:42:01+01:00</time>
      </trkpt>
      <trkpt lat="44.86657" lon="3.49592">
        <ele>1126</ele>
        <time>2021-03-13T19:42:06+01:00</time>
      </trkpt>
      <trkpt lat="44.86635" lon="3.4959">
        <ele>1127</ele>
        <time>2021-03-13T19:42:11+01:00</time>
      </trkpt>
      <trkpt lat="44.86598" lon="3.49587">
        <ele>1129</ele>
        <time>2021-03-13T19:42:16+01:00</time>
      </trkpt>
      <trkpt lat="44.86579" lon="3.49579">
        <ele>1130</ele>
        <time>2021-03-13T19:42:21+01:00</time>
      </trkpt>
      <trkpt lat="44.86534" lon="3.4954">
        <ele>1131</ele>
        <time>2021-03-13T19:42:26+01:00</time>
      </trkpt>
      <trkpt lat="44.86508" lon="3.49523">
        <ele>1132</ele>
        <time>2021-03-13T19:42:31+01:00</time>
      </trkpt>
      <trkpt lat="44.86483" lon="3.49516">
        <ele>1132</ele>
        <time>2021-03-13T19:42:36+01:00</time>
      </trkpt>
      <trkpt lat="44.86427" lon="3.49514">
        <ele>1134</ele>
        <time>2021-03-13T19:42:41+01:00</time>
      </trkpt>
      <trkpt lat="44.86407" lon="3.49518">
        <ele>1135</ele>
        <time>2021-03-13T19:42:46+01:00</time>
      </trkpt>
      <trkpt lat="44.86395" lon="3.49526">
        <ele>1135</ele>
        <time>2021-03-13T19:42:51+01:00</time>
      </trkpt>
      <trkpt lat="44.86386" lon="3.49542">
        <ele>1136</ele>
        <time>2021-03-13T19:42:56+01:00</time>
      </trkpt>
      <trkpt lat="44.86366" lon="3.49528">
        <ele>1134</ele>
        <time>2021-03-13T19:43:01+01:00</time>
      </trkpt>
      <trkpt lat="44.86327" lon="3.49517">
        <ele>1131</ele>
        <time>2021-03-13T19:43:06+01:00</time>
      </trkpt>
      <trkpt lat="44.86295" lon="3.49521">
        <ele>1131</ele>
        <time>2021-03-13T19:43:11+01:00</time>
      </trkpt>
      <trkpt lat="44.86282" lon="3.49518">
        <ele>1130</ele>
        <time>2021-03-13T19:43:16+01:00</time>
      </trkpt>
      <trkpt lat="44.86282" lon="3.49518">
        <ele>1130</ele>
        <time>2021-03-13T19:43:21+01:00</time>
      </trkpt>
      <trkpt lat="44.86248" lon="3.49503">
        <ele>1128</ele>
        <time>2021-03-13T19:43:26+01:00</time>
      </trkpt>
      <trkpt lat="44.86223" lon="3.49492">
        <ele>1129</ele>
        <time>2021-03-13T19:43:31+01:00</time>
      </trkpt>
      <trkpt lat="44.86213" lon="3.49483">
        <ele>1129</ele>
        <time>2021-03-13T19:43:36+01:00</time>
      </trkpt>
      <trkpt lat="44.86198" lon="3.49477">
        <ele>1129</ele>
        <time>2021-03-13T19:43:41+01:00</time>
      </trkpt>
      <trkpt lat="44.86176" lon="3.49469">
        <ele>1130</ele>
        <time>2021-03-13T19:43:46+01:00</time>
      </trkpt>
      <trkpt lat="44.86165" lon="3.4947">
        <ele>1131</ele>
        <time>2021-03-13T19:43:51+01:00</time>
      </trkpt>
      <trkpt lat="44.86152" lon="3.49475">
        <ele>1133</ele>
        <time>2021-03-13T19:43:56+01:00</time>
      </trkpt>
      <trkpt lat="44.86122" lon="3.49474">
        <ele>1137</ele>
        <time>2021-03-13T19:44:01+01:00</time>
      </trkpt>
      <trkpt lat="44.86097" lon="3.49464">
        <ele>1139</ele>
        <time>2021-03-13T19:44:06+01:00</time>
      </trkpt>
      <trkpt lat="44.86073" lon="3.49451">
        <ele>1140</ele>
        <time>2021-03-13T19:44:11+01:00</time>
      </trkpt>
      <trkpt lat="44.86047" lon="3.49435">
        <ele>1143</ele>
        <time>2021-03-13T19:44:16+01:00</time>
      </trkpt>
      <trkpt lat="44.86029" lon="3.49429">
        <ele>1145</ele>
        <time>2021-03-13T19:44:21+01:00</time>
      </trkpt>
      <trkpt lat="44.85936" lon="3.49374">
        <ele>1150</ele>
        <time>2021-03-13T19:44:26+01:00</time>
      </trkpt>
      <trkpt lat="44.85916" lon="3.49366">
        <ele>1151</ele>
        <time>2021-03-13T19:44:31+01:00</time>
      </trkpt>
      <trkpt lat="44.85899" lon="3.49368">
        <ele>1153</ele>
        <time>2021-03-13T19:44:36+01:00</time>
      </trkpt>
      <trkpt lat="44.85875" lon="3.49363">
        <ele>1155</ele>
        <time>2021-03-13T19:44:41+01:00</time>
      </trkpt>
      <trkpt lat="44.85858" lon="3.49352">
        <ele>1156</ele>
        <time>2021-03-13T19:44:46+01:00</time>
      </trkpt>
      <trkpt lat="44.85843" lon="3.49334">
        <ele>1155</ele>
        <time>2021-03-13T19:44:51+01:00</time>
      </trkpt>
      <trkpt lat="44.85835" lon="3.49316">
        <ele>1154</ele>
        <time>2021-03-13T19:44:56+01:00</time>
      </trkpt>
      <trkpt lat="44.85824" lon="3.49308">
        <ele>1153</ele>
        <time>2021-03-13T19:45:01+01:00</time>
      </trkpt>
      <trkpt lat="44.85807" lon="3.49305">
        <ele>1154</ele>
        <time>2021-03-13T19:45:06+01:00</time>
      </trkpt>
      <trkpt lat="44.85791" lon="3.49306">
        <ele>1154</ele>
        <time>2021-03-13T19:45:11+01:00</time>
      </trkpt>
      <trkpt lat="44.85791" lon="3.49306">
        <ele>1154</ele>
        <time>2021-03-13T19:45:16+01:00</time>
      </trkpt>
      <trkpt lat="44.85772" lon="3.49306">
        <ele>1155</ele>
        <time>2021-03-13T19:45:21+01:00</time>
      </trkpt>
      <trkpt lat="44.85739" lon="3.49311">
        <ele>1155</ele>
        <time>2021-03-13T19:45:26+01:00</time>
      </trkpt>
      <trkpt lat="44.85709" lon="3.49314">
        <ele>1155</ele>
        <time>2021-03-13T19:45:31+01:00</time>
      </trkpt>
      <trkpt lat="44.85701" lon="3.49315">
        <ele>1155</ele>
        <time>2021-03-13T19:45:36+01:00</time>
      </trkpt>
      <trkpt lat="44.85699" lon="3.49318">
        <ele>1155</ele>
        <time>2021-03-13T19:45:41+01:00</time>
      </trkpt>
      <trkpt lat="44.85667" lon="3.49348">
        <ele>1158</ele>
        <time>2021-03-13T19:45:46+01:00</time>
      </trkpt>
      <trkpt lat="44.85658" lon="3.49349">
        <ele>1158</ele>
        <time>2021-03-13T19:45:51+01:00</time>
      </trkpt>
      <trkpt lat="44.85649" lon="3.49349">
        <ele>1158</ele>
        <time>2021-03-13T19:45:56+01:00</time>
      </trkpt>
      <trkpt lat="44.85666" lon="3.4937">
        <ele>1160</ele>
        <time>2021-03-13T19:46:01+01:00</time>
      </trkpt>
      <trkpt lat="44.8567" lon="3.49378">
        <ele>1161</ele>
        <time>2021-03-13T19:46:06+01:00</time>
      </trkpt>
      <trkpt lat="44.85669" lon="3.49388">
        <ele>1162</ele>
        <time>2021-03-13T19:46:11+01:00</time>
      </trkpt>
      <trkpt lat="44.85665" lon="3.49404">
        <ele>1164</ele>
        <time>2021-03-13T19:46:16+01:00</time>
      </trkpt>
      <trkpt lat="44.85665" lon="3.49418">
        <ele>1165</ele>
        <time>2021-03-13T19:46:21+01:00</time>
      </trkpt>
      <trkpt lat="44.8567" lon="3.49457">
        <ele>1169</ele>
        <time>2021-03-13T19:46:26+01:00</time>
      </trkpt>
      <trkpt lat="44.85667" lon="3.4947">
        <ele>1170</ele>
        <time>2021-03-13T19:46:31+01:00</time>
      </trkpt>
      <trkpt lat="44.85655" lon="3.49489">
        <ele>1172</ele>
        <time>2021-03-13T19:46:36+01:00</time>
      </trkpt>
      <trkpt lat="44.85643" lon="3.49513">
        <ele>1175</ele>
        <time>2021-03-13T19:46:41+01:00</time>
      </trkpt>
      <trkpt lat="44.85629" lon="3.49521">
        <ele>1176</ele>
        <time>2021-03-13T19:46:46+01:00</time>
      </trkpt>
      <trkpt lat="44.85575" lon="3.49515">
        <ele>1177</ele>
        <time>2021-03-13T19:46:51+01:00</time>
      </trkpt>
      <trkpt lat="44.85544" lon="3.49517">
        <ele>1177</ele>
        <time>2021-03-13T19:46:56+01:00</time>
      </trkpt>
      <trkpt lat="44.85513" lon="3.49523">
        <ele>1177</ele>
        <time>2021-03-13T19:47:01+01:00</time>
      </trkpt>
      <trkpt lat="44.85508" lon="3.49525">
        <ele>1177</ele>
        <time>2021-03-13T19:47:06+01:00</time>
      </trkpt>
      <trkpt lat="44.85508" lon="3.49525">
        <ele>1177</ele>
        <time>2021-03-13T19:47:11+01:00</time>
      </trkpt>
      <trkpt lat="44.85467" lon="3.49535">
        <ele>1174</ele>
        <time>2021-03-13T19:47:16+01:00</time>
      </trkpt>
      <trkpt lat="44.85445" lon="3.49553">
        <ele>1173</ele>
        <time>2021-03-13T19:47:21+01:00</time>
      </trkpt>
      <trkpt lat="44.85421" lon="3.49567">
        <ele>1172</ele>
        <time>2021-03-13T19:47:26+01:00</time>
      </trkpt>
      <trkpt lat="44.8541" lon="3.49569">
        <ele>1172</ele>
        <time>2021-03-13T19:47:31+01:00</time>
      </trkpt>
      <trkpt lat="44.85403" lon="3.49574">
        <ele>1173</ele>
        <time>2021-03-13T19:47:36+01:00</time>
      </trkpt>
      <trkpt lat="44.85382" lon="3.49584">
        <ele>1174</ele>
        <time>2021-03-13T19:47:41+01:00</time>
      </trkpt>
      <trkpt lat="44.85363" lon="3.49585">
        <ele>1174</ele>
        <time>2021-03-13T19:47:46+01:00</time>
      </trkpt>
      <trkpt lat="44.85335" lon="3.49574">
        <ele>1175</ele>
        <time>2021-03-13T19:47:51+01:00</time>
      </trkpt>
      <trkpt lat="44.85318" lon="3.49574">
        <ele>1176</ele>
        <time>2021-03-13T19:47:56+01:00</time>
      </trkpt>
      <trkpt lat="44.85298" lon="3.49575">
        <ele>1177</ele>
        <time>2021-03-13T19:48:01+01:00</time>
      </trkpt>
      <trkpt lat="44.85274" lon="3.49568">
        <ele>1178</ele>
        <time>2021-03-13T19:48:06+01:00</time>
      </trkpt>
      <trkpt lat="44.85258" lon="3.49563">
        <ele>1179</ele>
        <time>2021-03-13T19:48:11+01:00</time>
      </trkpt>
      <trkpt lat="44.85243" lon="3.49561">
        <ele>1180</ele>
        <time>2021-03-13T19:48:16+01:00</time>
      </trkpt>
      <trkpt lat="44.852" lon="3.49569">
        <ele>1181</ele>
        <time>2021-03-13T19:48:21+01:00</time>
      </trkpt>
      <trkpt lat="44.85166" lon="3.49582">
        <ele>1182</ele>
        <time>2021-03-13T19:48:26+01:00</time>
      </trkpt>
      <trkpt lat="44.85124" lon="3.49593">
        <ele>1181</ele>
        <time>2021-03-13T19:48:31+01:00</time>
      </trkpt>
      <trkpt lat="44.85107" lon="3.49603">
        <ele>1181</ele>
        <time>2021-03-13T19:48:36+01:00</time>
      </trkpt>
      <trkpt lat="44.85107" lon="3.49603">
        <ele>1181</ele>
        <time>2021-03-13T19:48:41+01:00</time>
      </trkpt>
      <trkpt lat="44.85098" lon="3.49613">
        <ele>1182</ele>
        <time>2021-03-13T19:48:46+01:00</time>
      </trkpt>
      <trkpt lat="44.8508" lon="3.49647">
        <ele>1184</ele>
        <time>2021-03-13T19:48:51+01:00</time>
      </trkpt>
      <trkpt lat="44.85066" lon="3.49664">
        <ele>1185</ele>
        <time>2021-03-13T19:48:56+01:00</time>
      </trkpt>
      <trkpt lat="44.85052" lon="3.4967">
        <ele>1186</ele>
        <time>2021-03-13T19:49:01+01:00</time>
      </trkpt>
      <trkpt lat="44.8503" lon="3.49666">
        <ele>1186</ele>
        <time>2021-03-13T19:49:06+01:00</time>
      </trkpt>
      <trkpt lat="44.84991" lon="3.49652">
        <ele>1186</ele>
        <time>2021-03-13T19:49:11+01:00</time>
      </trkpt>
      <trkpt lat="44.84977" lon="3.49674">
        <ele>1188</ele>
        <time>2021-03-13T19:49:16+01:00</time>
      </trkpt>
      <trkpt lat="44.84953" lon="3.49701">
        <ele>1192</ele>
        <time>2021-03-13T19:49:21+01:00</time>
      </trkpt>
      <trkpt lat="44.84918" lon="3.49742">
        <ele>1198</ele>
        <time>2021-03-13T19:49:26+01:00</time>
      </trkpt>
      <trkpt lat="44.84912" lon="3.49744">
        <ele>1199</ele>
        <time>2021-03-13T19:49:31+01:00</time>
      </trkpt>
      <trkpt lat="44.84906" lon="3.49742">
        <ele>1200</ele>
        <time>2021-03-13T19:49:36+01:00</time>
      </trkpt>
      <trkpt lat="44.84894" lon="3.49734">
        <ele>1200</ele>
        <time>2021-03-13T19:49:41+01:00</time>
      </trkpt>
      <trkpt lat="44.84888" lon="3.49733">
        <ele>1201</ele>
        <time>2021-03-13T19:49:46+01:00</time>
      </trkpt>
      <trkpt lat="44.84865" lon="3.49734">
        <ele>1203</ele>
        <time>2021-03-13T19:49:51+01:00</time>
      </trkpt>
      <trkpt lat="44.84859" lon="3.49732">
        <ele>1204</ele>
        <time>2021-03-13T19:49:56+01:00</time>
      </trkpt>
      <trkpt lat="44.84849" lon="3.49723">
        <ele>1205</ele>
        <time>2021-03-13T19:50:01+01:00</time>
      </trkpt>
      <trkpt lat="44.84832" lon="3.49704">
        <ele>1205</ele>
        <time>2021-03-13T19:50:06+01:00</time>
      </trkpt>
      <trkpt lat="44.84824" lon="3.49696">
        <ele>1205</ele>
        <time>2021-03-13T19:50:11+01:00</time>
      </trkpt>
      <trkpt lat="44.84818" lon="3.49687">
        <ele>1204</ele>
        <time>2021-03-13T19:50:16+01:00</time>
      </trkpt>
      <trkpt lat="44.84804" lon="3.49664">
        <ele>1202</ele>
        <time>2021-03-13T19:50:21+01:00</time>
      </trkpt>
      <trkpt lat="44.84792" lon="3.49663">
        <ele>1202</ele>
        <time>2021-03-13T19:50:26+01:00</time>
      </trkpt>
      <trkpt lat="44.84775" lon="3.49676">
        <ele>1203</ele>
        <time>2021-03-13T19:50:31+01:00</time>
      </trkpt>
      <trkpt lat="44.84759" lon="3.49693">
        <ele>1204</ele>
        <time>2021-03-13T19:50:36+01:00</time>
      </trkpt>
      <trkpt lat="44.84759" lon="3.49693">
        <ele>1204</ele>
        <time>2021-03-13T19:50:41+01:00</time>
      </trkpt>
      <trkpt lat="44.84727" lon="3.49726">
        <ele>1207</ele>
        <time>2021-03-13T19:50:46+01:00</time>
      </trkpt>
      <trkpt lat="44.84683" lon="3.49766">
        <ele>1209</ele>
        <time>2021-03-13T19:50:51+01:00</time>
      </trkpt>
      <trkpt lat="44.84668" lon="3.49779">
        <ele>1210</ele>
        <time>2021-03-13T19:50:56+01:00</time>
      </trkpt>
      <trkpt lat="44.84658" lon="3.49784">
        <ele>1210</ele>
        <time>2021-03-13T19:51:01+01:00</time>
      </trkpt>
      <trkpt lat="44.84625" lon="3.49794">
        <ele>1210</ele>
        <time>2021-03-13T19:51:06+01:00</time>
      </trkpt>
      <trkpt lat="44.84599" lon="3.49805">
        <ele>1211</ele>
        <time>2021-03-13T19:51:11+01:00</time>
      </trkpt>
      <trkpt lat="44.84575" lon="3.49821">
        <ele>1213</ele>
        <time>2021-03-13T19:51:16+01:00</time>
      </trkpt>
      <trkpt lat="44.84564" lon="3.49824">
        <ele>1215</ele>
        <time>2021-03-13T19:51:21+01:00</time>
      </trkpt>
      <trkpt lat="44.84546" lon="3.49823">
        <ele>1215</ele>
        <time>2021-03-13T19:51:26+01:00</time>
      </trkpt>
      <trkpt lat="44.84525" lon="3.49826">
        <ele>1217</ele>
        <time>2021-03-13T19:51:31+01:00</time>
      </trkpt>
      <trkpt lat="44.84514" lon="3.49831">
        <ele>1219</ele>
        <time>2021-03-13T19:51:36+01:00</time>
      </trkpt>
      <trkpt lat="44.84491" lon="3.49847">
        <ele>1224</ele>
        <time>2021-03-13T19:51:41+01:00</time>
      </trkpt>
      <trkpt lat="44.84472" lon="3.49854">
        <ele>1227</ele>
        <time>2021-03-13T19:51:46+01:00</time>
      </trkpt>
      <trkpt lat="44.84453" lon="3.49853">
        <ele>1228</ele>
        <time>2021-03-13T19:51:51+01:00</time>
      </trkpt>
      <trkpt lat="44.84409" lon="3.49834">
        <ele>1228</ele>
        <time>2021-03-13T19:51:56+01:00</time>
      </trkpt>
      <trkpt lat="44.84399" lon="3.4983">
        <ele>1228</ele>
        <time>2021-03-13T19:52:01+01:00</time>
      </trkpt>
      <trkpt lat="44.84399" lon="3.4983">
        <ele>1228</ele>
        <time>2021-03-13T19:52:06+01:00</time>
      </trkpt>
      <trkpt lat="44.8437" lon="3.49819">
        <ele>1226</ele>
        <time>2021-03-13T19:52:11+01:00</time>
      </trkpt>
      <trkpt lat="44.84335" lon="3.4981">
        <ele>1226</ele>
        <time>2021-03-13T19:52:16+01:00</time>
      </trkpt>
      <trkpt lat="44.84297" lon="3.49821">
        <ele>1234</ele>
        <time>2021-03-13T19:52:21+01:00</time>
      </trkpt>
      <trkpt lat="44.84289" lon="3.49817">
        <ele>1234</ele>
        <time>2021-03-13T19:52:26+01:00</time>
      </trkpt>
      <trkpt lat="44.84279" lon="3.4978">
        <ele>1231</ele>
        <time>2021-03-13T19:52:31+01:00</time>
      </trkpt>
      <trkpt lat="44.84273" lon="3.49753">
        <ele>1229</ele>
        <time>2021-03-13T19:52:36+01:00</time>
      </trkpt>
      <trkpt lat="44.84263" lon="3.4973">
        <ele>1230</ele>
        <time>2021-03-13T19:52:41+01:00</time>
      </trkpt>
      <trkpt lat="44.84233" lon="3.49666">
        <ele>1231</ele>
        <time>2021-03-13T19:52:46+01:00</time>
      </trkpt>
      <trkpt lat="44.84198" lon="3.49588">
        <ele>1232</ele>
        <time>2021-03-13T19:52:51+01:00</time>
      </trkpt>
      <trkpt lat="44.84181" lon="3.49556">
        <ele>1234</ele>
        <time>2021-03-13T19:52:56+01:00</time>
      </trkpt>
      <trkpt lat="44.84162" lon="3.49529">
        <ele>1235</ele>
        <time>2021-03-13T19:53:01+01:00</time>
      </trkpt>
      <trkpt lat="44.84146" lon="3.49515">
        <ele>1237</ele>
        <time>2021-03-13T19:53:06+01:00</time>
      </trkpt>
      <trkpt lat="44.84131" lon="3.49512">
        <ele>1239</ele>
        <time>2021-03-13T19:53:11+01:00</time>
      </trkpt>
      <trkpt lat="44.84072" lon="3.4952">
        <ele>1248</ele>
        <time>2021-03-13T19:53:16+01:00</time>
      </trkpt>
      <trkpt lat="44.84064" lon="3.49523">
        <ele>1250</ele>
        <time>2021-03-13T19:53:21+01:00</time>
      </trkpt>
      <trkpt lat="44.84056" lon="3.49532">
        <ele>1252</ele>
        <time>2021-03-13T19:53:26+01:00</time>
      </trkpt>
      <trkpt lat="44.84031" lon="3.49556">
        <ele>1257</ele>
        <time>2021-03-13T19:53:31+01:00</time>
      </trkpt>
      <trkpt lat="44.84031" lon="3.49556">
        <ele>1257</ele>
        <time>2021-03-13T19:53:36+01:00</time>
      </trkpt>
      <trkpt lat="44.84015" lon="3.49568">
        <ele>1260</ele>
        <time>2021-03-13T19:53:41+01:00</time>
      </trkpt>
      <trkpt lat="44.84004" lon="3.4957">
        <ele>1262</ele>
        <time>2021-03-13T19:53:46+01:00</time>
      </trkpt>
      <trkpt lat="44.83979" lon="3.49568">
        <ele>1264</ele>
        <time>2021-03-13T19:53:51+01:00</time>
      </trkpt>
      <trkpt lat="44.83921" lon="3.49573">
        <ele>1271</ele>
        <time>2021-03-13T19:53:56+01:00</time>
      </trkpt>
      <trkpt lat="44.83873" lon="3.49574">
        <ele>1276</ele>
        <time>2021-03-13T19:54:01+01:00</time>
      </trkpt>
      <trkpt lat="44.83803" lon="3.4957">
        <ele>1283</ele>
        <time>2021-03-13T19:54:06+01:00</time>
      </trkpt>
      <trkpt lat="44.83723" lon="3.49574">
        <ele>1291</ele>
        <time>2021-03-13T19:54:11+01:00</time>
      </trkpt>
      <trkpt lat="44.83691" lon="3.49572">
        <ele>1294</ele>
        <time>2021-03-13T19:54:16+01:00</time>
      </trkpt>
      <trkpt lat="44.83644" lon="3.49561">
        <ele>1296</ele>
        <time>2021-03-13T19:54:21+01:00</time>
      </trkpt>
      <trkpt lat="44.83608" lon="3.4955">
        <ele>1298</ele>
        <time>2021-03-13T19:54:26+01:00</time>
      </trkpt>
      <trkpt lat="44.83576" lon="3.49547">
        <ele>1300</ele>
        <time>2021-03-13T19:54:31+01:00</time>
      </trkpt>
      <trkpt lat="44.83557" lon="3.49542">
        <ele>1301</ele>
        <time>2021-03-13T19:54:36+01:00</time>
      </trkpt>
      <trkpt lat="44.83532" lon="3.4955">
        <ele>1303</ele>
        <time>2021-03-13T19:54:41+01:00</time>
      </trkpt>
      <trkpt lat="44.83521" lon="3.49551">
        <ele>1303</ele>
        <time>2021-03-13T19:54:46+01:00</time>
      </trkpt>
      <trkpt lat="44.83519" lon="3.49581">
        <ele>1304</ele>
        <time>2021-03-13T19:54:51+01:00</time>
      </trkpt>
      <trkpt lat="44.8351" lon="3.49657">
        <ele>1312</ele>
        <time>2021-03-13T19:54:56+01:00</time>
      </trkpt>
      <trkpt lat="44.83501" lon="3.4976">
        <ele>1323</ele>
        <time>2021-03-13T19:55:01+01:00</time>
      </trkpt>
      <trkpt lat="44.8349" lon="3.49758">
        <ele>1324</ele>
        <time>2021-03-13T19:55:06+01:00</time>
      </trkpt>
      <trkpt lat="44.8349" lon="3.49758">
        <ele>1324</ele>
        <time>2021-03-13T19:55:11+01:00</time>
      </trkpt>
      <trkpt lat="44.83447" lon="3.49748">
        <ele>1324</ele>
        <time>2021-03-13T19:55:16+01:00</time>
      </trkpt>
      <trkpt lat="44.83356" lon="3.49718">
        <ele>1324</ele>
        <time>2021-03-13T19:55:21+01:00</time>
      </trkpt>
      <trkpt lat="44.83273" lon="3.49688">
        <ele>1328</ele>
        <time>2021-03-13T19:55:26+01:00</time>
      </trkpt>
      <trkpt lat="44.83182" lon="3.49664">
        <ele>1328</ele>
        <time>2021-03-13T19:55:31+01:00</time>
      </trkpt>
      <trkpt lat="44.83048" lon="3.49622">
        <ele>1327</ele>
        <time>2021-03-13T19:55:36+01:00</time>
      </trkpt>
      <trkpt lat="44.83013" lon="3.49611">
        <ele>1326</ele>
        <time>2021-03-13T19:55:41+01:00</time>
      </trkpt>
      <trkpt lat="44.83002" lon="3.49609">
        <ele>1327</ele>
        <time>2021-03-13T19:55:46+01:00</time>
      </trkpt>
      <trkpt lat="44.82995" lon="3.49611">
        <ele>1327</ele>
        <time>2021-03-13T19:55:51+01:00</time>
      </trkpt>
      <trkpt lat="44.83" lon="3.49603">
        <ele>1326</ele>
        <time>2021-03-13T19:55:56+01:00</time>
      </trkpt>
      <trkpt lat="44.83012" lon="3.49588">
        <ele>1323</ele>
        <time>2021-03-13T19:56:01+01:00</time>
      </trkpt>
      <trkpt lat="44.83038" lon="3.49567">
        <ele>1320</ele>
        <time>2021-03-13T19:56:06+01:00</time>
      </trkpt>
      <trkpt lat="44.8305" lon="3.49556">
        <ele>1319</ele>
        <time>2021-03-13T19:56:11+01:00</time>
      </trkpt>
      <trkpt lat="44.8306" lon="3.49542">
        <ele>1319</ele>
        <time>2021-03-13T19:56:16+01:00</time>
      </trkpt>
      <trkpt lat="44.83072" lon="3.49518">
        <ele>1317</ele>
        <time>2021-03-13T19:56:21+01:00</time>
      </trkpt>
      <trkpt lat="44.83072" lon="3.49518">
        <ele>1317</ele>
        <time>2021-03-13T19:56:26+01:00</time>
      </trkpt>
      <trkpt lat="44.8308" lon="3.49485">
        <ele>1316</ele>
        <time>2021-03-13T19:56:31+01:00</time>
      </trkpt>
      <trkpt lat="44.83085" lon="3.49445">
        <ele>1314</ele>
        <time>2021-03-13T19:56:36+01:00</time>
      </trkpt>
      <trkpt lat="44.83084" lon="3.49404">
        <ele>1313</ele>
        <time>2021-03-13T19:56:41+01:00</time>
      </trkpt>
      <trkpt lat="44.83073" lon="3.49369">
        <ele>1311</ele>
        <time>2021-03-13T19:56:46+01:00</time>
      </trkpt>
      <trkpt lat="44.83051" lon="3.49325">
        <ele>1309</ele>
        <time>2021-03-13T19:56:51+01:00</time>
      </trkpt>
      <trkpt lat="44.83037" lon="3.49288">
        <ele>1308</ele>
        <time>2021-03-13T19:56:56+01:00</time>
      </trkpt>
      <trkpt lat="44.83019" lon="3.49241">
        <ele>1306</ele>
        <time>2021-03-13T19:57:01+01:00</time>
      </trkpt>
      <trkpt lat="44.83008" lon="3.49219">
        <ele>1304</ele>
        <time>2021-03-13T19:57:06+01:00</time>
      </trkpt>
      <trkpt lat="44.82991" lon="3.49184">
        <ele>1302</ele>
        <time>2021-03-13T19:57:11+01:00</time>
      </trkpt>
      <trkpt lat="44.82969" lon="3.49153">
        <ele>1299</ele>
        <time>2021-03-13T19:57:16+01:00</time>
      </trkpt>
      <trkpt lat="44.82945" lon="3.49132">
        <ele>1296</ele>
        <time>2021-03-13T19:57:21+01:00</time>
      </trkpt>
      <trkpt lat="44.82915" lon="3.49113">
        <ele>1293</ele>
        <time>2021-03-13T19:57:26+01:00</time>
      </trkpt>
      <trkpt lat="44.82868" lon="3.49093">
        <ele>1294</ele>
        <time>2021-03-13T19:57:31+01:00</time>
      </trkpt>
      <trkpt lat="44.82839" lon="3.49082">
        <ele>1295</ele>
        <time>2021-03-13T19:57:36+01:00</time>
      </trkpt>
      <trkpt lat="44.82806" lon="3.49064">
        <ele>1294</ele>
        <time>2021-03-13T19:57:41+01:00</time>
      </trkpt>
      <trkpt lat="44.82792" lon="3.4906">
        <ele>1294</ele>
        <time>2021-03-13T19:57:46+01:00</time>
      </trkpt>
      <trkpt lat="44.82777" lon="3.4907">
        <ele>1296</ele>
        <time>2021-03-13T19:57:51+01:00</time>
      </trkpt>
      <trkpt lat="44.82754" lon="3.49088">
        <ele>1298</ele>
        <time>2021-03-13T19:57:56+01:00</time>
      </trkpt>
      <trkpt lat="44.8273" lon="3.49111">
        <ele>1300</ele>
        <time>2021-03-13T19:58:01+01:00</time>
      </trkpt>
      <trkpt lat="44.82719" lon="3.4912">
        <ele>1302</ele>
        <time>2021-03-13T19:58:06+01:00</time>
      </trkpt>
      <trkpt lat="44.82711" lon="3.49122">
        <ele>1302</ele>
        <time>2021-03-13T19:58:11+01:00</time>
      </trkpt>
      <trkpt lat="44.8269" lon="3.49116">
        <ele>1302</ele>
        <time>2021-03-13T19:58:16+01:00</time>
      </trkpt>
      <trkpt lat="44.8269" lon="3.49116">
        <ele>1302</ele>
        <time>2021-03-13T19:58:21+01:00</time>
      </trkpt>
      <trkpt lat="44.82645" lon="3.49102">
        <ele>1301</ele>
        <time>2021-03-13T19:58:26+01:00</time>
      </trkpt>
      <trkpt lat="44.82603" lon="3.49084">
        <ele>1299</ele>
        <time>2021-03-13T19:58:31+01:00</time>
      </trkpt>
      <trkpt lat="44.82571" lon="3.49064">
        <ele>1298</ele>
        <time>2021-03-13T19:58:36+01:00</time>
      </trkpt>
      <trkpt lat="44.82545" lon="3.49051">
        <ele>1299</ele>
        <time>2021-03-13T19:58:41+01:00</time>
      </trkpt>
      <trkpt lat="44.82505" lon="3.49027">
        <ele>1299</ele>
        <time>2021-03-13T19:58:46+01:00</time>
      </trkpt>
      <trkpt lat="44.82485" lon="3.49013">
        <ele>1299</ele>
        <time>2021-03-13T19:58:51+01:00</time>
      </trkpt>
      <trkpt lat="44.82475" lon="3.48991">
        <ele>1299</ele>
        <time>2021-03-13T19:58:56+01:00</time>
      </trkpt>
      <trkpt lat="44.82466" lon="3.48969">
        <ele>1299</ele>
        <time>2021-03-13T19:59:01+01:00</time>
      </trkpt>
      <trkpt lat="44.82456" lon="3.48938">
        <ele>1299</ele>
        <time>2021-03-13T19:59:06+01:00</time>
      </trkpt>
      <trkpt lat="44.82452" lon="3.48904">
        <ele>1298</ele>
        <time>2021-03-13T19:59:11+01:00</time>
      </trkpt>
      <trkpt lat="44.82447" lon="3.48762">
        <ele>1293</ele>
        <time>2021-03-13T19:59:16+01:00</time>
      </trkpt>
    </trkseg>
  </trk>
</gpx>